<?xml version="1.0" encoding="UTF-8" standalone="no" ?><gpx xmlns="http://www.topografix.com/GPX/1/1" xmlns:gpxx="http://www.garmin.com/xmlschemas/GpxExtensions/v3" xmlns:wptx1="http://www.garmin.com/xmlschemas/WaypointExtension/v1" xmlns:gpxtpx="http://www.garmin.com/xmlschemas/TrackPointExtension/v1" creator="GuideVTT.com" version="1.1" xmlns:xsi="http://www.w3.org/2001/XMLSchema-instance" xsi:schemaLocation="http://www.topografix.com/GPX/1/1 http://www.topografix.com/GPX/1/1/gpx.xsd http://www.garmin.com/xmlschemas/GpxExtensions/v3 http://www8.garmin.com/xmlschemas/GpxExtensionsv3.xsd http://www.garmin.com/xmlschemas/WaypointExtension/v1 http://www8.garmin.com/xmlschemas/WaypointExtensionv1.xsd http://www.garmin.com/xmlschemas/TrackPointExtension/v1 http://www.garmin.com/xmlschemas/TrackPointExtensionv1.xsd">
<metadata><link href="http://www.garmin.com"><text>Garmin International</text></link><time>2013-06-22T15:13:50Z</time></metadata>
<trk><name>fileoutfafa4.gpx</name><extensions><gpxx:TrackExtension><gpxx:DisplayColor>Cyan</gpxx:DisplayColor></gpxx:TrackExtension></extensions><trkseg>
<trkpt lat="48.04960418" lon="0.41367383"><ele></ele><time>2014-6-18T9:55:46Z</time></trkpt>
<trkpt lat="48.04962974" lon="0.41372697"><ele></ele><time>2014-6-18T9:55:49Z</time></trkpt>
<trkpt lat="48.04963276" lon="0.41376234"><ele></ele><time>2014-6-18T9:55:52Z</time></trkpt>
<trkpt lat="48.04963326" lon="0.41385144"><ele></ele><time>2014-6-18T9:55:55Z</time></trkpt>
<trkpt lat="48.04962966" lon="0.41390483"><ele></ele><time>2014-6-18T9:55:58Z</time></trkpt>
<trkpt lat="48.04960635" lon="0.41423198"><ele></ele><time>2014-6-18T9:56:1Z</time></trkpt>
<trkpt lat="48.04960216" lon="0.41430457"><ele></ele><time>2014-6-18T9:56:4Z</time></trkpt>
<trkpt lat="48.04959957" lon="0.41437648"><ele></ele><time>2014-6-18T9:56:7Z</time></trkpt>
<trkpt lat="48.04956989" lon="0.41466884"><ele></ele><time>2014-6-18T9:56:10Z</time></trkpt>
<trkpt lat="48.04949068" lon="0.41490613"><ele></ele><time>2014-6-18T9:56:13Z</time></trkpt>
<trkpt lat="48.04946948" lon="0.41522456"><ele></ele><time>2014-6-18T9:56:16Z</time></trkpt>
<trkpt lat="48.04951315" lon="0.41579914"><ele></ele><time>2014-6-18T9:56:19Z</time></trkpt>
<trkpt lat="48.04956428" lon="0.41629275"><ele></ele><time>2014-6-18T9:56:22Z</time></trkpt>
<trkpt lat="48.04947719" lon="0.41650507"><ele></ele><time>2014-6-18T9:56:25Z</time></trkpt>
<trkpt lat="48.04927753" lon="0.41653709"><ele></ele><time>2014-6-18T9:56:28Z</time></trkpt>
<trkpt lat="48.04890823" lon="0.41660439"><ele></ele><time>2014-6-18T9:56:31Z</time></trkpt>
<trkpt lat="48.04848863" lon="0.41669458"><ele></ele><time>2014-6-18T9:56:34Z</time></trkpt>
<trkpt lat="48.04819694" lon="0.41673867"><ele></ele><time>2014-6-18T9:56:37Z</time></trkpt>
<trkpt lat="48.04806626" lon="0.41674923"><ele></ele><time>2014-6-18T9:56:40Z</time></trkpt>
<trkpt lat="48.04790189" lon="0.41676365"><ele></ele><time>2014-6-18T9:56:43Z</time></trkpt>
<trkpt lat="48.04756964" lon="0.41682065"><ele></ele><time>2014-6-18T9:56:46Z</time></trkpt>
<trkpt lat="48.04745254" lon="0.41681226"><ele></ele><time>2014-6-18T9:56:49Z</time></trkpt>
<trkpt lat="48.04724827" lon="0.41682266"><ele></ele><time>2014-6-18T9:56:52Z</time></trkpt>
<trkpt lat="48.04686413" lon="0.41686893"><ele></ele><time>2014-6-18T9:56:55Z</time></trkpt>
<trkpt lat="48.04681459" lon="0.41687982"><ele></ele><time>2014-6-18T9:56:58Z</time></trkpt>
<trkpt lat="48.04655895" lon="0.41693162"><ele></ele><time>2014-6-18T9:57:1Z</time></trkpt>
<trkpt lat="48.04650656" lon="0.41694478"><ele></ele><time>2014-6-18T9:57:4Z</time></trkpt>
<trkpt lat="48.04632618" lon="0.41698485"><ele></ele><time>2014-6-18T9:57:7Z</time></trkpt>
<trkpt lat="48.04632015" lon="0.41701284"><ele></ele><time>2014-6-18T9:57:10Z</time></trkpt>
<trkpt lat="48.04631998" lon="0.41703204"><ele></ele><time>2014-6-18T9:57:13Z</time></trkpt>
<trkpt lat="48.04631805" lon="0.41718308"><ele></ele><time>2014-6-18T9:57:16Z</time></trkpt>
<trkpt lat="48.04631445" lon="0.41727545"><ele></ele><time>2014-6-18T9:57:19Z</time></trkpt>
<trkpt lat="48.04630665" lon="0.41736807"><ele></ele><time>2014-6-18T9:57:22Z</time></trkpt>
<trkpt lat="48.04628712" lon="0.41746354"><ele></ele><time>2014-6-18T9:57:25Z</time></trkpt>
<trkpt lat="48.04626868" lon="0.41756580"><ele></ele><time>2014-6-18T9:57:28Z</time></trkpt>
<trkpt lat="48.04624639" lon="0.41767174"><ele></ele><time>2014-6-18T9:57:31Z</time></trkpt>
<trkpt lat="48.04616156" lon="0.41803728"><ele></ele><time>2014-6-18T9:57:34Z</time></trkpt>
<trkpt lat="48.04609115" lon="0.41832914"><ele></ele><time>2014-6-18T9:57:37Z</time></trkpt>
<trkpt lat="48.04593558" lon="0.41858143"><ele></ele><time>2014-6-18T9:57:40Z</time></trkpt>
<trkpt lat="48.04556116" lon="0.41896842"><ele></ele><time>2014-6-18T9:57:43Z</time></trkpt>
<trkpt lat="48.04516537" lon="0.41938375"><ele></ele><time>2014-6-18T9:57:46Z</time></trkpt>
<trkpt lat="48.04456020" lon="0.42002295"><ele></ele><time>2014-6-18T9:57:49Z</time></trkpt>
<trkpt lat="48.04449566" lon="0.42008255"><ele></ele><time>2014-6-18T9:57:52Z</time></trkpt>
<trkpt lat="48.04419818" lon="0.42031154"><ele></ele><time>2014-6-18T9:57:55Z</time></trkpt>
<trkpt lat="48.04384070" lon="0.42055864"><ele></ele><time>2014-6-18T9:57:58Z</time></trkpt>
<trkpt lat="48.04348924" lon="0.42077045"><ele></ele><time>2014-6-18T9:58:1Z</time></trkpt>
<trkpt lat="48.04324105" lon="0.42076332"><ele></ele><time>2014-6-18T9:58:4Z</time></trkpt>
<trkpt lat="48.04318632" lon="0.42071437"><ele></ele><time>2014-6-18T9:58:7Z</time></trkpt>
<trkpt lat="48.04259447" lon="0.42008858"><ele></ele><time>2014-6-18T9:58:10Z</time></trkpt>
<trkpt lat="48.04205669" lon="0.41952607"><ele></ele><time>2014-6-18T9:58:13Z</time></trkpt>
<trkpt lat="48.04163064" lon="0.41908175"><ele></ele><time>2014-6-18T9:58:16Z</time></trkpt>
<trkpt lat="48.04158278" lon="0.41903112"><ele></ele><time>2014-6-18T9:58:19Z</time></trkpt>
<trkpt lat="48.04143827" lon="0.41899826"><ele></ele><time>2014-6-18T9:58:22Z</time></trkpt>
<trkpt lat="48.04135554" lon="0.41903188"><ele></ele><time>2014-6-18T9:58:25Z</time></trkpt>
<trkpt lat="48.04126896" lon="0.41901989"><ele></ele><time>2014-6-18T9:58:28Z</time></trkpt>
<trkpt lat="48.04088473" lon="0.41911553"><ele></ele><time>2014-6-18T9:58:31Z</time></trkpt>
<trkpt lat="48.04043328" lon="0.41920756"><ele></ele><time>2014-6-18T9:58:34Z</time></trkpt>
<trkpt lat="48.04024402" lon="0.41925232"><ele></ele><time>2014-6-18T9:58:37Z</time></trkpt>
<trkpt lat="48.03983012" lon="0.41935902"><ele></ele><time>2014-6-18T9:58:40Z</time></trkpt>
<trkpt lat="48.03978235" lon="0.41936615"><ele></ele><time>2014-6-18T9:58:43Z</time></trkpt>
<trkpt lat="48.03964446" lon="0.41940277"><ele></ele><time>2014-6-18T9:58:46Z</time></trkpt>
<trkpt lat="48.03945386" lon="0.41939682"><ele></ele><time>2014-6-18T9:58:49Z</time></trkpt>
<trkpt lat="48.03927532" lon="0.41940252"><ele></ele><time>2014-6-18T9:58:52Z</time></trkpt>
<trkpt lat="48.03918505" lon="0.41928166"><ele></ele><time>2014-6-18T9:58:55Z</time></trkpt>
<trkpt lat="48.03915043" lon="0.41875544"><ele></ele><time>2014-6-18T9:58:58Z</time></trkpt>
<trkpt lat="48.03910903" lon="0.41828052"><ele></ele><time>2014-6-18T9:59:1Z</time></trkpt>
<trkpt lat="48.03910660" lon="0.41804415"><ele></ele><time>2014-6-18T9:59:4Z</time></trkpt>
<trkpt lat="48.03899109" lon="0.41764090"><ele></ele><time>2014-6-18T9:59:7Z</time></trkpt>
<trkpt lat="48.03880099" lon="0.41759606"><ele></ele><time>2014-6-18T9:59:10Z</time></trkpt>
<trkpt lat="48.03874760" lon="0.41760310"><ele></ele><time>2014-6-18T9:59:13Z</time></trkpt>
<trkpt lat="48.03857862" lon="0.41761567"><ele></ele><time>2014-6-18T9:59:16Z</time></trkpt>
<trkpt lat="48.03841433" lon="0.41779102"><ele></ele><time>2014-6-18T9:59:19Z</time></trkpt>
<trkpt lat="48.03838265" lon="0.41810274"><ele></ele><time>2014-6-18T9:59:22Z</time></trkpt>
<trkpt lat="48.03826178" lon="0.41836099"><ele></ele><time>2014-6-18T9:59:25Z</time></trkpt>
<trkpt lat="48.03810974" lon="0.41855872"><ele></ele><time>2014-6-18T9:59:28Z</time></trkpt>
<trkpt lat="48.03794285" lon="0.41883482"><ele></ele><time>2014-6-18T9:59:31Z</time></trkpt>
<trkpt lat="48.03788854" lon="0.41895803"><ele></ele><time>2014-6-18T9:59:34Z</time></trkpt>
<trkpt lat="48.03780120" lon="0.41900237"><ele></ele><time>2014-6-18T9:59:37Z</time></trkpt>
<trkpt lat="48.03778586" lon="0.41884605"><ele></ele><time>2014-6-18T9:59:40Z</time></trkpt>
<trkpt lat="48.03776197" lon="0.41857934"><ele></ele><time>2014-6-18T9:59:43Z</time></trkpt>
<trkpt lat="48.03780313" lon="0.41802806"><ele></ele><time>2014-6-18T9:59:46Z</time></trkpt>
<trkpt lat="48.03775434" lon="0.41752707"><ele></ele><time>2014-6-18T9:59:49Z</time></trkpt>
<trkpt lat="48.03759215" lon="0.41706422"><ele></ele><time>2014-6-18T9:59:52Z</time></trkpt>
<trkpt lat="48.03733257" lon="0.41671176"><ele></ele><time>2014-6-18T9:59:55Z</time></trkpt>
<trkpt lat="48.03712134" lon="0.41658210"><ele></ele><time>2014-6-18T9:59:58Z</time></trkpt>
<trkpt lat="48.03695429" lon="0.41653147"><ele></ele><time>2014-6-18T10:0:1Z</time></trkpt>
<trkpt lat="48.03654785" lon="0.41658863"><ele></ele><time>2014-6-18T10:0:4Z</time></trkpt>
<trkpt lat="48.03627703" lon="0.41678930"><ele></ele><time>2014-6-18T10:0:7Z</time></trkpt>
<trkpt lat="48.03622716" lon="0.41684194"><ele></ele><time>2014-6-18T10:0:10Z</time></trkpt>
<trkpt lat="48.03599423" lon="0.41724754"><ele></ele><time>2014-6-18T10:0:13Z</time></trkpt>
<trkpt lat="48.03588007" lon="0.41766093"><ele></ele><time>2014-6-18T10:0:16Z</time></trkpt>
<trkpt lat="48.03585174" lon="0.41811816"><ele></ele><time>2014-6-18T10:0:19Z</time></trkpt>
<trkpt lat="48.03595467" lon="0.41867774"><ele></ele><time>2014-6-18T10:0:22Z</time></trkpt>
<trkpt lat="48.03621442" lon="0.41914662"><ele></ele><time>2014-6-18T10:0:25Z</time></trkpt>
<trkpt lat="48.03627117" lon="0.41920857"><ele></ele><time>2014-6-18T10:0:28Z</time></trkpt>
<trkpt lat="48.03645507" lon="0.41936195"><ele></ele><time>2014-6-18T10:0:31Z</time></trkpt>
<trkpt lat="48.03668414" lon="0.41947997"><ele></ele><time>2014-6-18T10:0:34Z</time></trkpt>
<trkpt lat="48.03669889" lon="0.41956748"><ele></ele><time>2014-6-18T10:0:37Z</time></trkpt>
<trkpt lat="48.03666595" lon="0.41982212"><ele></ele><time>2014-6-18T10:0:40Z</time></trkpt>
<trkpt lat="48.03667182" lon="0.42011390"><ele></ele><time>2014-6-18T10:0:43Z</time></trkpt>
<trkpt lat="48.03675036" lon="0.42019897"><ele></ele><time>2014-6-18T10:0:46Z</time></trkpt>
<trkpt lat="48.03678649" lon="0.42017072"><ele></ele><time>2014-6-18T10:0:49Z</time></trkpt>
<trkpt lat="48.03713283" lon="0.41999068"><ele></ele><time>2014-6-18T10:0:52Z</time></trkpt>
<trkpt lat="48.03753323" lon="0.41983277"><ele></ele><time>2014-6-18T10:0:55Z</time></trkpt>
<trkpt lat="48.03764890" lon="0.41979999"><ele></ele><time>2014-6-18T10:0:58Z</time></trkpt>
<trkpt lat="48.03788426" lon="0.41983578"><ele></ele><time>2014-6-18T10:1:1Z</time></trkpt>
<trkpt lat="48.03791896" lon="0.41998750"><ele></ele><time>2014-6-18T10:1:4Z</time></trkpt>
<trkpt lat="48.03798820" lon="0.42056182"><ele></ele><time>2014-6-18T10:1:7Z</time></trkpt>
<trkpt lat="48.03814762" lon="0.42089693"><ele></ele><time>2014-6-18T10:1:10Z</time></trkpt>
<trkpt lat="48.03825089" lon="0.42129038"><ele></ele><time>2014-6-18T10:1:13Z</time></trkpt>
<trkpt lat="48.03827763" lon="0.42206772"><ele></ele><time>2014-6-18T10:1:16Z</time></trkpt>
<trkpt lat="48.03824787" lon="0.42270172"><ele></ele><time>2014-6-18T10:1:19Z</time></trkpt>
<trkpt lat="48.03823672" lon="0.42288713"><ele></ele><time>2014-6-18T10:1:22Z</time></trkpt>
<trkpt lat="48.03824636" lon="0.42314789"><ele></ele><time>2014-6-18T10:1:25Z</time></trkpt>
<trkpt lat="48.03832247" lon="0.42334738"><ele></ele><time>2014-6-18T10:1:28Z</time></trkpt>
<trkpt lat="48.03846756" lon="0.42348250"><ele></ele><time>2014-6-18T10:1:31Z</time></trkpt>
<trkpt lat="48.03851827" lon="0.42365164"><ele></ele><time>2014-6-18T10:1:34Z</time></trkpt>
<trkpt lat="48.03860066" lon="0.42422488"><ele></ele><time>2014-6-18T10:1:37Z</time></trkpt>
<trkpt lat="48.03856563" lon="0.42497800"><ele></ele><time>2014-6-18T10:1:40Z</time></trkpt>
<trkpt lat="48.03863117" lon="0.42534219"><ele></ele><time>2014-6-18T10:1:43Z</time></trkpt>
<trkpt lat="48.03866143" lon="0.42540723"><ele></ele><time>2014-6-18T10:1:46Z</time></trkpt>
<trkpt lat="48.03879043" lon="0.42565106"><ele></ele><time>2014-6-18T10:1:49Z</time></trkpt>
<trkpt lat="48.03890334" lon="0.42566774"><ele></ele><time>2014-6-18T10:1:52Z</time></trkpt>
<trkpt lat="48.03890786" lon="0.42582499"><ele></ele><time>2014-6-18T10:1:55Z</time></trkpt>
<trkpt lat="48.03883729" lon="0.42619849"><ele></ele><time>2014-6-18T10:1:58Z</time></trkpt>
<trkpt lat="48.03883050" lon="0.42629999"><ele></ele><time>2014-6-18T10:2:1Z</time></trkpt>
<trkpt lat="48.03880057" lon="0.42711019"><ele></ele><time>2014-6-18T10:2:4Z</time></trkpt>
<trkpt lat="48.03882974" lon="0.42802398"><ele></ele><time>2014-6-18T10:2:7Z</time></trkpt>
<trkpt lat="48.03885355" lon="0.42842003"><ele></ele><time>2014-6-18T10:2:10Z</time></trkpt>
<trkpt lat="48.03893284" lon="0.42900156"><ele></ele><time>2014-6-18T10:2:13Z</time></trkpt>
<trkpt lat="48.03903937" lon="0.42955812"><ele></ele><time>2014-6-18T10:2:16Z</time></trkpt>
<trkpt lat="48.03910249" lon="0.42991896"><ele></ele><time>2014-6-18T10:2:19Z</time></trkpt>
<trkpt lat="48.03920718" lon="0.43054819"><ele></ele><time>2014-6-18T10:2:22Z</time></trkpt>
<trkpt lat="48.03930818" lon="0.43118865"><ele></ele><time>2014-6-18T10:2:25Z</time></trkpt>
<trkpt lat="48.03940834" lon="0.43195752"><ele></ele><time>2014-6-18T10:2:28Z</time></trkpt>
<trkpt lat="48.03949309" lon="0.43256228"><ele></ele><time>2014-6-18T10:2:31Z</time></trkpt>
<trkpt lat="48.03959928" lon="0.43303343"><ele></ele><time>2014-6-18T10:2:34Z</time></trkpt>
<trkpt lat="48.03965192" lon="0.43320224"><ele></ele><time>2014-6-18T10:2:37Z</time></trkpt>
<trkpt lat="48.03982375" lon="0.43392794"><ele></ele><time>2014-6-18T10:2:40Z</time></trkpt>
<trkpt lat="48.03996323" lon="0.43450939"><ele></ele><time>2014-6-18T10:2:43Z</time></trkpt>
<trkpt lat="48.04013757" lon="0.43513410"><ele></ele><time>2014-6-18T10:2:46Z</time></trkpt>
<trkpt lat="48.04030412" lon="0.43593499"><ele></ele><time>2014-6-18T10:2:49Z</time></trkpt>
<trkpt lat="48.04044192" lon="0.43679506"><ele></ele><time>2014-6-18T10:2:52Z</time></trkpt>
<trkpt lat="48.04055583" lon="0.43754390"><ele></ele><time>2014-6-18T10:2:55Z</time></trkpt>
<trkpt lat="48.04072305" lon="0.43846297"><ele></ele><time>2014-6-18T10:2:58Z</time></trkpt>
<trkpt lat="48.04090108" lon="0.43919555"><ele></ele><time>2014-6-18T10:3:1Z</time></trkpt>
<trkpt lat="48.04106939" lon="0.43971598"><ele></ele><time>2014-6-18T10:3:4Z</time></trkpt>
<trkpt lat="48.04130048" lon="0.44040137"><ele></ele><time>2014-6-18T10:3:7Z</time></trkpt>
<trkpt lat="48.04152570" lon="0.44103689"><ele></ele><time>2014-6-18T10:3:10Z</time></trkpt>
<trkpt lat="48.04169233" lon="0.44163669"><ele></ele><time>2014-6-18T10:3:13Z</time></trkpt>
<trkpt lat="48.04176089" lon="0.44196753"><ele></ele><time>2014-6-18T10:3:16Z</time></trkpt>
<trkpt lat="48.04180783" lon="0.44242317"><ele></ele><time>2014-6-18T10:3:19Z</time></trkpt>
<trkpt lat="48.04183088" lon="0.44279876"><ele></ele><time>2014-6-18T10:3:22Z</time></trkpt>
<trkpt lat="48.04173214" lon="0.44355825"><ele></ele><time>2014-6-18T10:3:25Z</time></trkpt>
<trkpt lat="48.04163885" lon="0.44429116"><ele></ele><time>2014-6-18T10:3:28Z</time></trkpt>
<trkpt lat="48.04159317" lon="0.44510437"><ele></ele><time>2014-6-18T10:3:31Z</time></trkpt>
<trkpt lat="48.04153894" lon="0.44589546"><ele></ele><time>2014-6-18T10:3:34Z</time></trkpt>
<trkpt lat="48.04148555" lon="0.44666877"><ele></ele><time>2014-6-18T10:3:37Z</time></trkpt>
<trkpt lat="48.04143785" lon="0.44743756"><ele></ele><time>2014-6-18T10:3:40Z</time></trkpt>
<trkpt lat="48.04139896" lon="0.44815019"><ele></ele><time>2014-6-18T10:3:43Z</time></trkpt>
<trkpt lat="48.04139687" lon="0.44834289"><ele></ele><time>2014-6-18T10:3:46Z</time></trkpt>
<trkpt lat="48.04134247" lon="0.44901436"><ele></ele><time>2014-6-18T10:3:49Z</time></trkpt>
<trkpt lat="48.04132126" lon="0.44920245"><ele></ele><time>2014-6-18T10:3:52Z</time></trkpt>
<trkpt lat="48.04126485" lon="0.44955919"><ele></ele><time>2014-6-18T10:3:55Z</time></trkpt>
<trkpt lat="48.04118598" lon="0.45000804"><ele></ele><time>2014-6-18T10:3:58Z</time></trkpt>
<trkpt lat="48.04111239" lon="0.45044549"><ele></ele><time>2014-6-18T10:4:1Z</time></trkpt>
<trkpt lat="48.04109478" lon="0.45053232"><ele></ele><time>2014-6-18T10:4:4Z</time></trkpt>
<trkpt lat="48.04103209" lon="0.45088193"><ele></ele><time>2014-6-18T10:4:7Z</time></trkpt>
<trkpt lat="48.04098993" lon="0.45132215"><ele></ele><time>2014-6-18T10:4:10Z</time></trkpt>
<trkpt lat="48.04091826" lon="0.45194426"><ele></ele><time>2014-6-18T10:4:13Z</time></trkpt>
<trkpt lat="48.04081139" lon="0.45256192"><ele></ele><time>2014-6-18T10:4:16Z</time></trkpt>
<trkpt lat="48.04071676" lon="0.45301856"><ele></ele><time>2014-6-18T10:4:19Z</time></trkpt>
<trkpt lat="48.04056848" lon="0.45356087"><ele></ele><time>2014-6-18T10:4:22Z</time></trkpt>
<trkpt lat="48.04040822" lon="0.45406982"><ele></ele><time>2014-6-18T10:4:25Z</time></trkpt>
<trkpt lat="48.04036330" lon="0.45438347"><ele></ele><time>2014-6-18T10:4:28Z</time></trkpt>
<trkpt lat="48.04042909" lon="0.45490005"><ele></ele><time>2014-6-18T10:4:31Z</time></trkpt>
<trkpt lat="48.04050780" lon="0.45545979"><ele></ele><time>2014-6-18T10:4:34Z</time></trkpt>
<trkpt lat="48.04057586" lon="0.45599003"><ele></ele><time>2014-6-18T10:4:37Z</time></trkpt>
<trkpt lat="48.04061316" lon="0.45627326"><ele></ele><time>2014-6-18T10:4:40Z</time></trkpt>
<trkpt lat="48.04054485" lon="0.45648146"><ele></ele><time>2014-6-18T10:4:43Z</time></trkpt>
<trkpt lat="48.04050654" lon="0.45650552"><ele></ele><time>2014-6-18T10:4:46Z</time></trkpt>
<trkpt lat="48.04026623" lon="0.45664290"><ele></ele><time>2014-6-18T10:4:49Z</time></trkpt>
<trkpt lat="48.04023203" lon="0.45665924"><ele></ele><time>2014-6-18T10:4:52Z</time></trkpt>
<trkpt lat="48.04021904" lon="0.45668129"><ele></ele><time>2014-6-18T10:4:55Z</time></trkpt>
<trkpt lat="48.04019272" lon="0.45671255"><ele></ele><time>2014-6-18T10:4:58Z</time></trkpt>
<trkpt lat="48.04015920" lon="0.45671406"><ele></ele><time>2014-6-18T10:5:1Z</time></trkpt>
<trkpt lat="48.04012500" lon="0.45673242"><ele></ele><time>2014-6-18T10:5:4Z</time></trkpt>
<trkpt lat="48.04009734" lon="0.45673803"><ele></ele><time>2014-6-18T10:5:7Z</time></trkpt>
<trkpt lat="48.04005157" lon="0.45676125"><ele></ele><time>2014-6-18T10:5:10Z</time></trkpt>
<trkpt lat="48.03996448" lon="0.45677885"><ele></ele><time>2014-6-18T10:5:13Z</time></trkpt>
<trkpt lat="48.03987622" lon="0.45679092"><ele></ele><time>2014-6-18T10:5:16Z</time></trkpt>
<trkpt lat="48.03979584" lon="0.45677382"><ele></ele><time>2014-6-18T10:5:19Z</time></trkpt>
<trkpt lat="48.03967992" lon="0.45674818"><ele></ele><time>2014-6-18T10:5:22Z</time></trkpt>
<trkpt lat="48.03954656" lon="0.45668825"><ele></ele><time>2014-6-18T10:5:25Z</time></trkpt>
<trkpt lat="48.03942335" lon="0.45661574"><ele></ele><time>2014-6-18T10:5:28Z</time></trkpt>
<trkpt lat="48.03925999" lon="0.45650745"><ele></ele><time>2014-6-18T10:5:31Z</time></trkpt>
<trkpt lat="48.03916535" lon="0.45645489"><ele></ele><time>2014-6-18T10:5:34Z</time></trkpt>
<trkpt lat="48.03903887" lon="0.45633956"><ele></ele><time>2014-6-18T10:5:37Z</time></trkpt>
<trkpt lat="48.03887534" lon="0.45620654"><ele></ele><time>2014-6-18T10:5:40Z</time></trkpt>
<trkpt lat="48.03870695" lon="0.45605768"><ele></ele><time>2014-6-18T10:5:43Z</time></trkpt>
<trkpt lat="48.03856655" lon="0.45594268"><ele></ele><time>2014-6-18T10:5:46Z</time></trkpt>
<trkpt lat="48.03845289" lon="0.45591652"><ele></ele><time>2014-6-18T10:5:49Z</time></trkpt>
<trkpt lat="48.03830663" lon="0.45588920"><ele></ele><time>2014-6-18T10:5:52Z</time></trkpt>
<trkpt lat="48.03812424" lon="0.45587637"><ele></ele><time>2014-6-18T10:5:55Z</time></trkpt>
<trkpt lat="48.03799918" lon="0.45586707"><ele></ele><time>2014-6-18T10:5:58Z</time></trkpt>
<trkpt lat="48.03782383" lon="0.45585559"><ele></ele><time>2014-6-18T10:6:1Z</time></trkpt>
<trkpt lat="48.03764052" lon="0.45587990"><ele></ele><time>2014-6-18T10:6:4Z</time></trkpt>
<trkpt lat="48.03743617" lon="0.45591602"><ele></ele><time>2014-6-18T10:6:7Z</time></trkpt>
<trkpt lat="48.03727766" lon="0.45591694"><ele></ele><time>2014-6-18T10:6:10Z</time></trkpt>
<trkpt lat="48.03714246" lon="0.45592885"><ele></ele><time>2014-6-18T10:6:13Z</time></trkpt>
<trkpt lat="48.03700659" lon="0.45593455"><ele></ele><time>2014-6-18T10:6:16Z</time></trkpt>
<trkpt lat="48.03686276" lon="0.45597369"><ele></ele><time>2014-6-18T10:6:19Z</time></trkpt>
<trkpt lat="48.03672966" lon="0.45598014"><ele></ele><time>2014-6-18T10:6:22Z</time></trkpt>
<trkpt lat="48.03669278" lon="0.45598559"><ele></ele><time>2014-6-18T10:6:25Z</time></trkpt>
<trkpt lat="48.03653209" lon="0.45597176"><ele></ele><time>2014-6-18T10:6:28Z</time></trkpt>
<trkpt lat="48.03640570" lon="0.45596028"><ele></ele><time>2014-6-18T10:6:31Z</time></trkpt>
<trkpt lat="48.03628483" lon="0.45587629"><ele></ele><time>2014-6-18T10:6:34Z</time></trkpt>
<trkpt lat="48.03625273" lon="0.45578065"><ele></ele><time>2014-6-18T10:6:37Z</time></trkpt>
<trkpt lat="48.03617285" lon="0.45562173"><ele></ele><time>2014-6-18T10:6:40Z</time></trkpt>
<trkpt lat="48.03610940" lon="0.45543884"><ele></ele><time>2014-6-18T10:6:43Z</time></trkpt>
<trkpt lat="48.03606774" lon="0.45534153"><ele></ele><time>2014-6-18T10:6:46Z</time></trkpt>
<trkpt lat="48.03599859" lon="0.45514304"><ele></ele><time>2014-6-18T10:6:49Z</time></trkpt>
<trkpt lat="48.03595148" lon="0.45502377"><ele></ele><time>2014-6-18T10:6:52Z</time></trkpt>
<trkpt lat="48.03592994" lon="0.45494028"><ele></ele><time>2014-6-18T10:6:55Z</time></trkpt>
<trkpt lat="48.03586582" lon="0.45481908"><ele></ele><time>2014-6-18T10:6:58Z</time></trkpt>
<trkpt lat="48.03578242" lon="0.45470685"><ele></ele><time>2014-6-18T10:7:1Z</time></trkpt>
<trkpt lat="48.03574109" lon="0.45464876"><ele></ele><time>2014-6-18T10:7:4Z</time></trkpt>
<trkpt lat="48.03573162" lon="0.45463216"><ele></ele><time>2014-6-18T10:7:7Z</time></trkpt>
<trkpt lat="48.03565023" lon="0.45454793"><ele></ele><time>2014-6-18T10:7:10Z</time></trkpt>
<trkpt lat="48.03563976" lon="0.45453896"><ele></ele><time>2014-6-18T10:7:13Z</time></trkpt>
<trkpt lat="48.03557723" lon="0.45444206"><ele></ele><time>2014-6-18T10:7:16Z</time></trkpt>
<trkpt lat="48.03552828" lon="0.45432245"><ele></ele><time>2014-6-18T10:7:19Z</time></trkpt>
<trkpt lat="48.03550992" lon="0.45428675"><ele></ele><time>2014-6-18T10:7:22Z</time></trkpt>
<trkpt lat="48.03545284" lon="0.45413705"><ele></ele><time>2014-6-18T10:7:25Z</time></trkpt>
<trkpt lat="48.03536064" lon="0.45392339"><ele></ele><time>2014-6-18T10:7:28Z</time></trkpt>
<trkpt lat="48.03526542" lon="0.45368903"><ele></ele><time>2014-6-18T10:7:31Z</time></trkpt>
<trkpt lat="48.03514925" lon="0.45341587"><ele></ele><time>2014-6-18T10:7:34Z</time></trkpt>
<trkpt lat="48.03501195" lon="0.45315276"><ele></ele><time>2014-6-18T10:7:37Z</time></trkpt>
<trkpt lat="48.03491849" lon="0.45298554"><ele></ele><time>2014-6-18T10:7:40Z</time></trkpt>
<trkpt lat="48.03489813" lon="0.45293894"><ele></ele><time>2014-6-18T10:7:43Z</time></trkpt>
<trkpt lat="48.03480282" lon="0.45279024"><ele></ele><time>2014-6-18T10:7:46Z</time></trkpt>
<trkpt lat="48.03472445" lon="0.45268203"><ele></ele><time>2014-6-18T10:7:49Z</time></trkpt>
<trkpt lat="48.03466159" lon="0.45259746"><ele></ele><time>2014-6-18T10:7:52Z</time></trkpt>
<trkpt lat="48.03467106" lon="0.45237048"><ele></ele><time>2014-6-18T10:7:55Z</time></trkpt>
<trkpt lat="48.03468640" lon="0.45209622"><ele></ele><time>2014-6-18T10:7:58Z</time></trkpt>
<trkpt lat="48.03461314" lon="0.45189229"><ele></ele><time>2014-6-18T10:8:1Z</time></trkpt>
<trkpt lat="48.03450644" lon="0.45170604"><ele></ele><time>2014-6-18T10:8:4Z</time></trkpt>
<trkpt lat="48.03439043" lon="0.45146498"><ele></ele><time>2014-6-18T10:8:7Z</time></trkpt>
<trkpt lat="48.03424937" lon="0.45115485"><ele></ele><time>2014-6-18T10:8:10Z</time></trkpt>
<trkpt lat="48.03410159" lon="0.45081228"><ele></ele><time>2014-6-18T10:8:13Z</time></trkpt>
<trkpt lat="48.03393605" lon="0.45040517"><ele></ele><time>2014-6-18T10:8:16Z</time></trkpt>
<trkpt lat="48.03383329" lon="0.45006604"><ele></ele><time>2014-6-18T10:8:19Z</time></trkpt>
<trkpt lat="48.03376892" lon="0.44960688"><ele></ele><time>2014-6-18T10:8:22Z</time></trkpt>
<trkpt lat="48.03376548" lon="0.44947738"><ele></ele><time>2014-6-18T10:8:25Z</time></trkpt>
<trkpt lat="48.03383589" lon="0.44899215"><ele></ele><time>2014-6-18T10:8:28Z</time></trkpt>
<trkpt lat="48.03379633" lon="0.44872007"><ele></ele><time>2014-6-18T10:8:31Z</time></trkpt>
<trkpt lat="48.03375877" lon="0.44867758"><ele></ele><time>2014-6-18T10:8:34Z</time></trkpt>
<trkpt lat="48.03349148" lon="0.44856115"><ele></ele><time>2014-6-18T10:8:37Z</time></trkpt>
<trkpt lat="48.03303919" lon="0.44863885"><ele></ele><time>2014-6-18T10:8:40Z</time></trkpt>
<trkpt lat="48.03276904" lon="0.44869736"><ele></ele><time>2014-6-18T10:8:43Z</time></trkpt>
<trkpt lat="48.03237274" lon="0.44890967"><ele></ele><time>2014-6-18T10:8:46Z</time></trkpt>
<trkpt lat="48.03231122" lon="0.44893356"><ele></ele><time>2014-6-18T10:8:49Z</time></trkpt>
<trkpt lat="48.03199749" lon="0.44890858"><ele></ele><time>2014-6-18T10:8:52Z</time></trkpt>
<trkpt lat="48.03194183" lon="0.44887464"><ele></ele><time>2014-6-18T10:8:55Z</time></trkpt>
<trkpt lat="48.03161267" lon="0.44865486"><ele></ele><time>2014-6-18T10:8:58Z</time></trkpt>
<trkpt lat="48.03152148" lon="0.44858286"><ele></ele><time>2014-6-18T10:9:1Z</time></trkpt>
<trkpt lat="48.03151309" lon="0.44841715"><ele></ele><time>2014-6-18T10:9:4Z</time></trkpt>
<trkpt lat="48.03155283" lon="0.44831590"><ele></ele><time>2014-6-18T10:9:7Z</time></trkpt>
<trkpt lat="48.03164712" lon="0.44778080"><ele></ele><time>2014-6-18T10:9:10Z</time></trkpt>
<trkpt lat="48.03168073" lon="0.44759966"><ele></ele><time>2014-6-18T10:9:13Z</time></trkpt>
<trkpt lat="48.03182834" lon="0.44734268"><ele></ele><time>2014-6-18T10:9:16Z</time></trkpt>
<trkpt lat="48.03187779" lon="0.44732206"><ele></ele><time>2014-6-18T10:9:19Z</time></trkpt>
<trkpt lat="48.03212196" lon="0.44726036"><ele></ele><time>2014-6-18T10:9:22Z</time></trkpt>
<trkpt lat="48.03229236" lon="0.44716758"><ele></ele><time>2014-6-18T10:9:25Z</time></trkpt>
<trkpt lat="48.03253854" lon="0.44698594"><ele></ele><time>2014-6-18T10:9:28Z</time></trkpt>
<trkpt lat="48.03276158" lon="0.44690564"><ele></ele><time>2014-6-18T10:9:31Z</time></trkpt>
<trkpt lat="48.03307548" lon="0.44674538"><ele></ele><time>2014-6-18T10:9:34Z</time></trkpt>
<trkpt lat="48.03331638" lon="0.44666374"><ele></ele><time>2014-6-18T10:9:37Z</time></trkpt>
<trkpt lat="48.03345283" lon="0.44665335"><ele></ele><time>2014-6-18T10:9:40Z</time></trkpt>
<trkpt lat="48.03367822" lon="0.44643693"><ele></ele><time>2014-6-18T10:9:43Z</time></trkpt>
<trkpt lat="48.03380739" lon="0.44614507"><ele></ele><time>2014-6-18T10:9:46Z</time></trkpt>
<trkpt lat="48.03393228" lon="0.44593074"><ele></ele><time>2014-6-18T10:9:49Z</time></trkpt>
<trkpt lat="48.03397235" lon="0.44587819"><ele></ele><time>2014-6-18T10:9:52Z</time></trkpt>
<trkpt lat="48.03405943" lon="0.44575833"><ele></ele><time>2014-6-18T10:9:55Z</time></trkpt>
<trkpt lat="48.03425339" lon="0.44537762"><ele></ele><time>2014-6-18T10:9:58Z</time></trkpt>
<trkpt lat="48.03430343" lon="0.44511032"><ele></ele><time>2014-6-18T10:10:1Z</time></trkpt>
<trkpt lat="48.03430326" lon="0.44496079"><ele></ele><time>2014-6-18T10:10:4Z</time></trkpt>
<trkpt lat="48.03426563" lon="0.44474714"><ele></ele><time>2014-6-18T10:10:7Z</time></trkpt>
<trkpt lat="48.03421048" lon="0.44458897"><ele></ele><time>2014-6-18T10:10:10Z</time></trkpt>
<trkpt lat="48.03410017" lon="0.44437917"><ele></ele><time>2014-6-18T10:10:13Z</time></trkpt>
<trkpt lat="48.03402959" lon="0.44405412"><ele></ele><time>2014-6-18T10:10:16Z</time></trkpt>
<trkpt lat="48.03401962" lon="0.44394423"><ele></ele><time>2014-6-18T10:10:19Z</time></trkpt>
<trkpt lat="48.03399850" lon="0.44370677"><ele></ele><time>2014-6-18T10:10:22Z</time></trkpt>
<trkpt lat="48.03399003" lon="0.44344056"><ele></ele><time>2014-6-18T10:10:25Z</time></trkpt>
<trkpt lat="48.03402783" lon="0.44302340"><ele></ele><time>2014-6-18T10:10:28Z</time></trkpt>
<trkpt lat="48.03404845" lon="0.44273565"><ele></ele><time>2014-6-18T10:10:31Z</time></trkpt>
<trkpt lat="48.03400110" lon="0.44229023"><ele></ele><time>2014-6-18T10:10:34Z</time></trkpt>
<trkpt lat="48.03396774" lon="0.44213944"><ele></ele><time>2014-6-18T10:10:37Z</time></trkpt>
<trkpt lat="48.03386095" lon="0.44173409"><ele></ele><time>2014-6-18T10:10:40Z</time></trkpt>
<trkpt lat="48.03381946" lon="0.44151708"><ele></ele><time>2014-6-18T10:10:43Z</time></trkpt>
<trkpt lat="48.03374017" lon="0.44103504"><ele></ele><time>2014-6-18T10:10:46Z</time></trkpt>
<trkpt lat="48.03368032" lon="0.44064109"><ele></ele><time>2014-6-18T10:10:49Z</time></trkpt>
<trkpt lat="48.03363506" lon="0.44037413"><ele></ele><time>2014-6-18T10:10:52Z</time></trkpt>
<trkpt lat="48.03363564" lon="0.43984087"><ele></ele><time>2014-6-18T10:10:55Z</time></trkpt>
<trkpt lat="48.03378996" lon="0.43901509"><ele></ele><time>2014-6-18T10:10:58Z</time></trkpt>
<trkpt lat="48.03389775" lon="0.43837773"><ele></ele><time>2014-6-18T10:11:1Z</time></trkpt>
<trkpt lat="48.03399506" lon="0.43791404"><ele></ele><time>2014-6-18T10:11:4Z</time></trkpt>
<trkpt lat="48.03434333" lon="0.43713553"><ele></ele><time>2014-6-18T10:11:7Z</time></trkpt>
<trkpt lat="48.03470559" lon="0.43641167"><ele></ele><time>2014-6-18T10:11:10Z</time></trkpt>
<trkpt lat="48.03498119" lon="0.43575495"><ele></ele><time>2014-6-18T10:11:13Z</time></trkpt>
<trkpt lat="48.03507322" lon="0.43521582"><ele></ele><time>2014-6-18T10:11:16Z</time></trkpt>
<trkpt lat="48.03512762" lon="0.43432927"><ele></ele><time>2014-6-18T10:11:19Z</time></trkpt>
<trkpt lat="48.03516316" lon="0.43362938"><ele></ele><time>2014-6-18T10:11:22Z</time></trkpt>
<trkpt lat="48.03509384" lon="0.43346878"><ele></ele><time>2014-6-18T10:11:25Z</time></trkpt>
<trkpt lat="48.03502989" lon="0.43349166"><ele></ele><time>2014-6-18T10:11:28Z</time></trkpt>
<trkpt lat="48.03494783" lon="0.43358638"><ele></ele><time>2014-6-18T10:11:31Z</time></trkpt>
<trkpt lat="48.03488203" lon="0.43368537"><ele></ele><time>2014-6-18T10:11:34Z</time></trkpt>
<trkpt lat="48.03489762" lon="0.43364497"><ele></ele><time>2014-6-18T10:11:37Z</time></trkpt>
<trkpt lat="48.03480827" lon="0.43370557"><ele></ele><time>2014-6-18T10:11:40Z</time></trkpt>
<trkpt lat="48.03473485" lon="0.43378092"><ele></ele><time>2014-6-18T10:11:43Z</time></trkpt>
<trkpt lat="48.03465237" lon="0.43387086"><ele></ele><time>2014-6-18T10:11:46Z</time></trkpt>
<trkpt lat="48.03457635" lon="0.43395954"><ele></ele><time>2014-6-18T10:11:49Z</time></trkpt>
<trkpt lat="48.03450795" lon="0.43406113"><ele></ele><time>2014-6-18T10:11:52Z</time></trkpt>
<trkpt lat="48.03444852" lon="0.43417605"><ele></ele><time>2014-6-18T10:11:55Z</time></trkpt>
<trkpt lat="48.03438893" lon="0.43425827"><ele></ele><time>2014-6-18T10:11:58Z</time></trkpt>
<trkpt lat="48.03435003" lon="0.43442675"><ele></ele><time>2014-6-18T10:12:1Z</time></trkpt>
<trkpt lat="48.03433235" lon="0.43449447"><ele></ele><time>2014-6-18T10:12:4Z</time></trkpt>
<trkpt lat="48.03420469" lon="0.43467795"><ele></ele><time>2014-6-18T10:12:7Z</time></trkpt>
<trkpt lat="48.03398643" lon="0.43491994"><ele></ele><time>2014-6-18T10:12:10Z</time></trkpt>
<trkpt lat="48.03381175" lon="0.43508364"><ele></ele><time>2014-6-18T10:12:13Z</time></trkpt>
<trkpt lat="48.03372206" lon="0.43513753"><ele></ele><time>2014-6-18T10:12:16Z</time></trkpt>
<trkpt lat="48.03357597" lon="0.43527156"><ele></ele><time>2014-6-18T10:12:19Z</time></trkpt>
<trkpt lat="48.03347102" lon="0.43534943"><ele></ele><time>2014-6-18T10:12:22Z</time></trkpt>
<trkpt lat="48.03328293" lon="0.43557817"><ele></ele><time>2014-6-18T10:12:25Z</time></trkpt>
<trkpt lat="48.03315209" lon="0.43567230"><ele></ele><time>2014-6-18T10:12:28Z</time></trkpt>
<trkpt lat="48.03310046" lon="0.43576852"><ele></ele><time>2014-6-18T10:12:31Z</time></trkpt>
<trkpt lat="48.03301312" lon="0.43587757"><ele></ele><time>2014-6-18T10:12:34Z</time></trkpt>
<trkpt lat="48.03283660" lon="0.43608553"><ele></ele><time>2014-6-18T10:12:37Z</time></trkpt>
<trkpt lat="48.03266946" lon="0.43626867"><ele></ele><time>2014-6-18T10:12:40Z</time></trkpt>
<trkpt lat="48.03256452" lon="0.43637462"><ele></ele><time>2014-6-18T10:12:43Z</time></trkpt>
<trkpt lat="48.03239948" lon="0.43650923"><ele></ele><time>2014-6-18T10:12:46Z</time></trkpt>
<trkpt lat="48.03230359" lon="0.43659079"><ele></ele><time>2014-6-18T10:12:49Z</time></trkpt>
<trkpt lat="48.03216387" lon="0.43665843"><ele></ele><time>2014-6-18T10:12:52Z</time></trkpt>
<trkpt lat="48.03201316" lon="0.43667813"><ele></ele><time>2014-6-18T10:12:55Z</time></trkpt>
<trkpt lat="48.03188483" lon="0.43669028"><ele></ele><time>2014-6-18T10:12:58Z</time></trkpt>
<trkpt lat="48.03182675" lon="0.43668919"><ele></ele><time>2014-6-18T10:13:1Z</time></trkpt>
<trkpt lat="48.03168518" lon="0.43668659"><ele></ele><time>2014-6-18T10:13:4Z</time></trkpt>
<trkpt lat="48.03150916" lon="0.43666128"><ele></ele><time>2014-6-18T10:13:7Z</time></trkpt>
<trkpt lat="48.03142576" lon="0.43663639"><ele></ele><time>2014-6-18T10:13:10Z</time></trkpt>
<trkpt lat="48.03131302" lon="0.43660722"><ele></ele><time>2014-6-18T10:13:13Z</time></trkpt>
<trkpt lat="48.03120707" lon="0.43659205"><ele></ele><time>2014-6-18T10:13:16Z</time></trkpt>
<trkpt lat="48.03112736" lon="0.43656958"><ele></ele><time>2014-6-18T10:13:19Z</time></trkpt>
<trkpt lat="48.03099065" lon="0.43661183"><ele></ele><time>2014-6-18T10:13:22Z</time></trkpt>
<trkpt lat="48.03090029" lon="0.43667955"><ele></ele><time>2014-6-18T10:13:25Z</time></trkpt>
<trkpt lat="48.03087817" lon="0.43670160"><ele></ele><time>2014-6-18T10:13:28Z</time></trkpt>
<trkpt lat="48.03078362" lon="0.43683395"><ele></ele><time>2014-6-18T10:13:31Z</time></trkpt>
<trkpt lat="48.03071849" lon="0.43689388"><ele></ele><time>2014-6-18T10:13:34Z</time></trkpt>
<trkpt lat="48.03050048" lon="0.43710703"><ele></ele><time>2014-6-18T10:13:37Z</time></trkpt>
<trkpt lat="48.03026847" lon="0.43729872"><ele></ele><time>2014-6-18T10:13:40Z</time></trkpt>
<trkpt lat="48.03002380" lon="0.43744398"><ele></ele><time>2014-6-18T10:13:43Z</time></trkpt>
<trkpt lat="48.02983353" lon="0.43756812"><ele></ele><time>2014-6-18T10:13:46Z</time></trkpt>
<trkpt lat="48.02964745" lon="0.43773014"><ele></ele><time>2014-6-18T10:13:49Z</time></trkpt>
<trkpt lat="48.02949482" lon="0.43779418"><ele></ele><time>2014-6-18T10:13:52Z</time></trkpt>
<trkpt lat="48.02934319" lon="0.43782469"><ele></ele><time>2014-6-18T10:13:55Z</time></trkpt>
<trkpt lat="48.02920832" lon="0.43784866"><ele></ele><time>2014-6-18T10:13:58Z</time></trkpt>
<trkpt lat="48.02908192" lon="0.43786727"><ele></ele><time>2014-6-18T10:14:1Z</time></trkpt>
<trkpt lat="48.02897304" lon="0.43786928"><ele></ele><time>2014-6-18T10:14:4Z</time></trkpt>
<trkpt lat="48.02886492" lon="0.43788110"><ele></ele><time>2014-6-18T10:14:7Z</time></trkpt>
<trkpt lat="48.02873508" lon="0.43789744"><ele></ele><time>2014-6-18T10:14:10Z</time></trkpt>
<trkpt lat="48.02862746" lon="0.43792292"><ele></ele><time>2014-6-18T10:14:13Z</time></trkpt>
<trkpt lat="48.02851288" lon="0.43793474"><ele></ele><time>2014-6-18T10:14:16Z</time></trkpt>
<trkpt lat="48.02833484" lon="0.43797833"><ele></ele><time>2014-6-18T10:14:19Z</time></trkpt>
<trkpt lat="48.02820744" lon="0.43801856"><ele></ele><time>2014-6-18T10:14:22Z</time></trkpt>
<trkpt lat="48.02805204" lon="0.43811764"><ele></ele><time>2014-6-18T10:14:25Z</time></trkpt>
<trkpt lat="48.02786579" lon="0.43836440"><ele></ele><time>2014-6-18T10:14:28Z</time></trkpt>
<trkpt lat="48.02765482" lon="0.43878475"><ele></ele><time>2014-6-18T10:14:31Z</time></trkpt>
<trkpt lat="48.02747210" lon="0.43912154"><ele></ele><time>2014-6-18T10:14:34Z</time></trkpt>
<trkpt lat="48.02722877" lon="0.43963342"><ele></ele><time>2014-6-18T10:14:37Z</time></trkpt>
<trkpt lat="48.02716733" lon="0.43975689"><ele></ele><time>2014-6-18T10:14:40Z</time></trkpt>
<trkpt lat="48.02682267" lon="0.44020289"><ele></ele><time>2014-6-18T10:14:43Z</time></trkpt>
<trkpt lat="48.02646937" lon="0.44051008"><ele></ele><time>2014-6-18T10:14:46Z</time></trkpt>
<trkpt lat="48.02604265" lon="0.44083999"><ele></ele><time>2014-6-18T10:14:49Z</time></trkpt>
<trkpt lat="48.02580988" lon="0.44103630"><ele></ele><time>2014-6-18T10:14:52Z</time></trkpt>
<trkpt lat="48.02571106" lon="0.44100034"><ele></ele><time>2014-6-18T10:14:55Z</time></trkpt>
<trkpt lat="48.02570712" lon="0.44094670"><ele></ele><time>2014-6-18T10:14:58Z</time></trkpt>
<trkpt lat="48.02571952" lon="0.44057949"><ele></ele><time>2014-6-18T10:15:1Z</time></trkpt>
<trkpt lat="48.02575992" lon="0.43992947"><ele></ele><time>2014-6-18T10:15:4Z</time></trkpt>
<trkpt lat="48.02580569" lon="0.43924584"><ele></ele><time>2014-6-18T10:15:7Z</time></trkpt>
<trkpt lat="48.02582405" lon="0.43833925"><ele></ele><time>2014-6-18T10:15:10Z</time></trkpt>
<trkpt lat="48.02580703" lon="0.43748899"><ele></ele><time>2014-6-18T10:15:13Z</time></trkpt>
<trkpt lat="48.02577996" lon="0.43673538"><ele></ele><time>2014-6-18T10:15:16Z</time></trkpt>
<trkpt lat="48.02577149" lon="0.43593097"><ele></ele><time>2014-6-18T10:15:19Z</time></trkpt>
<trkpt lat="48.02578440" lon="0.43515933"><ele></ele><time>2014-6-18T10:15:22Z</time></trkpt>
<trkpt lat="48.02584542" lon="0.43460436"><ele></ele><time>2014-6-18T10:15:25Z</time></trkpt>
<trkpt lat="48.02588088" lon="0.43410094"><ele></ele><time>2014-6-18T10:15:28Z</time></trkpt>
<trkpt lat="48.02585053" lon="0.43379014"><ele></ele><time>2014-6-18T10:15:31Z</time></trkpt>
<trkpt lat="48.02585414" lon="0.43340676"><ele></ele><time>2014-6-18T10:15:34Z</time></trkpt>
<trkpt lat="48.02583184" lon="0.43323794"><ele></ele><time>2014-6-18T10:15:37Z</time></trkpt>
<trkpt lat="48.02570628" lon="0.43259857"><ele></ele><time>2014-6-18T10:15:40Z</time></trkpt>
<trkpt lat="48.02560654" lon="0.43189986"><ele></ele><time>2014-6-18T10:15:43Z</time></trkpt>
<trkpt lat="48.02550939" lon="0.43128739"><ele></ele><time>2014-6-18T10:15:46Z</time></trkpt>
<trkpt lat="48.02536690" lon="0.43083888"><ele></ele><time>2014-6-18T10:15:49Z</time></trkpt>
<trkpt lat="48.02524419" lon="0.43053914"><ele></ele><time>2014-6-18T10:15:52Z</time></trkpt>
<trkpt lat="48.02496448" lon="0.42997562"><ele></ele><time>2014-6-18T10:15:55Z</time></trkpt>
<trkpt lat="48.02483615" lon="0.42974688"><ele></ele><time>2014-6-18T10:15:58Z</time></trkpt>
<trkpt lat="48.02462795" lon="0.42955795"><ele></ele><time>2014-6-18T10:16:1Z</time></trkpt>
<trkpt lat="48.02457749" lon="0.42955426"><ele></ele><time>2014-6-18T10:16:4Z</time></trkpt>
<trkpt lat="48.02447565" lon="0.42955410"><ele></ele><time>2014-6-18T10:16:7Z</time></trkpt>
<trkpt lat="48.02432125" lon="0.42940398"><ele></ele><time>2014-6-18T10:16:10Z</time></trkpt>
<trkpt lat="48.02431237" lon="0.42925159"><ele></ele><time>2014-6-18T10:16:13Z</time></trkpt>
<trkpt lat="48.02427138" lon="0.42850242"><ele></ele><time>2014-6-18T10:16:16Z</time></trkpt>
<trkpt lat="48.02420366" lon="0.42782558"><ele></ele><time>2014-6-18T10:16:19Z</time></trkpt>
<trkpt lat="48.02414490" lon="0.42755904"><ele></ele><time>2014-6-18T10:16:22Z</time></trkpt>
<trkpt lat="48.02406049" lon="0.42718059"><ele></ele><time>2014-6-18T10:16:25Z</time></trkpt>
<trkpt lat="48.02403149" lon="0.42698697"><ele></ele><time>2014-6-18T10:16:28Z</time></trkpt>
<trkpt lat="48.02401867" lon="0.42680064"><ele></ele><time>2014-6-18T10:16:31Z</time></trkpt>
<trkpt lat="48.02409159" lon="0.42655614"><ele></ele><time>2014-6-18T10:16:34Z</time></trkpt>
<trkpt lat="48.02417667" lon="0.42652328"><ele></ele><time>2014-6-18T10:16:37Z</time></trkpt>
<trkpt lat="48.02444573" lon="0.42649034"><ele></ele><time>2014-6-18T10:16:40Z</time></trkpt>
<trkpt lat="48.02464857" lon="0.42646327"><ele></ele><time>2014-6-18T10:16:43Z</time></trkpt>
<trkpt lat="48.02472803" lon="0.42646419"><ele></ele><time>2014-6-18T10:16:46Z</time></trkpt>
<trkpt lat="48.02500052" lon="0.42643393"><ele></ele><time>2014-6-18T10:16:49Z</time></trkpt>
<trkpt lat="48.02521602" lon="0.42638767"><ele></ele><time>2014-6-18T10:16:52Z</time></trkpt>
<trkpt lat="48.02537209" lon="0.42633335"><ele></ele><time>2014-6-18T10:16:55Z</time></trkpt>
<trkpt lat="48.02558642" lon="0.42628893"><ele></ele><time>2014-6-18T10:16:58Z</time></trkpt>
<trkpt lat="48.02584676" lon="0.42627837"><ele></ele><time>2014-6-18T10:17:1Z</time></trkpt>
<trkpt lat="48.02608179" lon="0.42625540"><ele></ele><time>2014-6-18T10:17:4Z</time></trkpt>
<trkpt lat="48.02643710" lon="0.42624719"><ele></ele><time>2014-6-18T10:17:7Z</time></trkpt>
<trkpt lat="48.02665578" lon="0.42628306"><ele></ele><time>2014-6-18T10:17:10Z</time></trkpt>
<trkpt lat="48.02673457" lon="0.42629463"><ele></ele><time>2014-6-18T10:17:13Z</time></trkpt>
<trkpt lat="48.02689433" lon="0.42629848"><ele></ele><time>2014-6-18T10:17:16Z</time></trkpt>
<trkpt lat="48.02704588" lon="0.42629396"><ele></ele><time>2014-6-18T10:17:19Z</time></trkpt>
<trkpt lat="48.02735835" lon="0.42619027"><ele></ele><time>2014-6-18T10:17:22Z</time></trkpt>
<trkpt lat="48.02750789" lon="0.42611282"><ele></ele><time>2014-6-18T10:17:25Z</time></trkpt>
<trkpt lat="48.02757964" lon="0.42607318"><ele></ele><time>2014-6-18T10:17:28Z</time></trkpt>
<trkpt lat="48.02770117" lon="0.42596119"><ele></ele><time>2014-6-18T10:17:31Z</time></trkpt>
<trkpt lat="48.02786269" lon="0.42569943"><ele></ele><time>2014-6-18T10:17:34Z</time></trkpt>
<trkpt lat="48.02808892" lon="0.42535636"><ele></ele><time>2014-6-18T10:17:37Z</time></trkpt>
<trkpt lat="48.02828698" lon="0.42510037"><ele></ele><time>2014-6-18T10:17:40Z</time></trkpt>
<trkpt lat="48.02841623" lon="0.42488965"><ele></ele><time>2014-6-18T10:17:43Z</time></trkpt>
<trkpt lat="48.02851506" lon="0.42470818"><ele></ele><time>2014-6-18T10:17:46Z</time></trkpt>
<trkpt lat="48.02865654" lon="0.42454239"><ele></ele><time>2014-6-18T10:17:49Z</time></trkpt>
<trkpt lat="48.02894664" lon="0.42428942"><ele></ele><time>2014-6-18T10:17:52Z</time></trkpt>
<trkpt lat="48.02933028" lon="0.42391417"><ele></ele><time>2014-6-18T10:17:55Z</time></trkpt>
<trkpt lat="48.02960747" lon="0.42361183"><ele></ele><time>2014-6-18T10:17:58Z</time></trkpt>
<trkpt lat="48.03000938" lon="0.42317153"><ele></ele><time>2014-6-18T10:18:1Z</time></trkpt>
<trkpt lat="48.03046846" lon="0.42272176"><ele></ele><time>2014-6-18T10:18:4Z</time></trkpt>
<trkpt lat="48.03065378" lon="0.42250374"><ele></ele><time>2014-6-18T10:18:7Z</time></trkpt>
<trkpt lat="48.03088940" lon="0.42227944"><ele></ele><time>2014-6-18T10:18:10Z</time></trkpt>
<trkpt lat="48.03131763" lon="0.42190226"><ele></ele><time>2014-6-18T10:18:13Z</time></trkpt>
<trkpt lat="48.03156942" lon="0.42171107"><ele></ele><time>2014-6-18T10:18:16Z</time></trkpt>
<trkpt lat="48.03168375" lon="0.42162348"><ele></ele><time>2014-6-18T10:18:19Z</time></trkpt>
<trkpt lat="48.03179858" lon="0.42154955"><ele></ele><time>2014-6-18T10:18:22Z</time></trkpt>
<trkpt lat="48.03212422" lon="0.42138459"><ele></ele><time>2014-6-18T10:18:25Z</time></trkpt>
<trkpt lat="48.03243284" lon="0.42127135"><ele></ele><time>2014-6-18T10:18:28Z</time></trkpt>
<trkpt lat="48.03257005" lon="0.42123112"><ele></ele><time>2014-6-18T10:18:31Z</time></trkpt>
<trkpt lat="48.03288882" lon="0.42113766"><ele></ele><time>2014-6-18T10:18:34Z</time></trkpt>
<trkpt lat="48.03299384" lon="0.42104688"><ele></ele><time>2014-6-18T10:18:37Z</time></trkpt>
<trkpt lat="48.03298546" lon="0.42103138"><ele></ele><time>2014-6-18T10:18:40Z</time></trkpt>
<trkpt lat="48.03283609" lon="0.42092694"><ele></ele><time>2014-6-18T10:18:43Z</time></trkpt>
<trkpt lat="48.03264985" lon="0.42080574"><ele></ele><time>2014-6-18T10:18:46Z</time></trkpt>
<trkpt lat="48.03243167" lon="0.42065126"><ele></ele><time>2014-6-18T10:18:49Z</time></trkpt>
<trkpt lat="48.03219924" lon="0.42050868"><ele></ele><time>2014-6-18T10:18:52Z</time></trkpt>
<trkpt lat="48.03194996" lon="0.42037575"><ele></ele><time>2014-6-18T10:18:55Z</time></trkpt>
<trkpt lat="48.03151108" lon="0.42015639"><ele></ele><time>2014-6-18T10:18:58Z</time></trkpt>
<trkpt lat="48.03131277" lon="0.42008984"><ele></ele><time>2014-6-18T10:19:1Z</time></trkpt>
<trkpt lat="48.03100683" lon="0.41999479"><ele></ele><time>2014-6-18T10:19:4Z</time></trkpt>
<trkpt lat="48.03073668" lon="0.41995112"><ele></ele><time>2014-6-18T10:19:7Z</time></trkpt>
<trkpt lat="48.03051422" lon="0.41993394"><ele></ele><time>2014-6-18T10:19:10Z</time></trkpt>
<trkpt lat="48.03038615" lon="0.41995053"><ele></ele><time>2014-6-18T10:19:13Z</time></trkpt>
<trkpt lat="48.03011558" lon="0.42001817"><ele></ele><time>2014-6-18T10:19:16Z</time></trkpt>
<trkpt lat="48.02988826" lon="0.42008766"><ele></ele><time>2014-6-18T10:19:19Z</time></trkpt>
<trkpt lat="48.02968450" lon="0.42016880"><ele></ele><time>2014-6-18T10:19:22Z</time></trkpt>
<trkpt lat="48.02944008" lon="0.42022982"><ele></ele><time>2014-6-18T10:19:25Z</time></trkpt>
<trkpt lat="48.02922064" lon="0.42029117"><ele></ele><time>2014-6-18T10:19:28Z</time></trkpt>
<trkpt lat="48.02898780" lon="0.42036368"><ele></ele><time>2014-6-18T10:19:31Z</time></trkpt>
<trkpt lat="48.02878965" lon="0.42042755"><ele></ele><time>2014-6-18T10:19:34Z</time></trkpt>
<trkpt lat="48.02849863" lon="0.42052804"><ele></ele><time>2014-6-18T10:19:37Z</time></trkpt>
<trkpt lat="48.02824005" lon="0.42062385"><ele></ele><time>2014-6-18T10:19:40Z</time></trkpt>
<trkpt lat="48.02795816" lon="0.42076425"><ele></ele><time>2014-6-18T10:19:43Z</time></trkpt>
<trkpt lat="48.02765147" lon="0.42093247"><ele></ele><time>2014-6-18T10:19:46Z</time></trkpt>
<trkpt lat="48.02746329" lon="0.42099064"><ele></ele><time>2014-6-18T10:19:49Z</time></trkpt>
<trkpt lat="48.02728468" lon="0.42096944"><ele></ele><time>2014-6-18T10:19:52Z</time></trkpt>
<trkpt lat="48.02708938" lon="0.42092769"><ele></ele><time>2014-6-18T10:19:55Z</time></trkpt>
<trkpt lat="48.02694186" lon="0.42085913"><ele></ele><time>2014-6-18T10:19:58Z</time></trkpt>
<trkpt lat="48.02684479" lon="0.42078202"><ele></ele><time>2014-6-18T10:20:1Z</time></trkpt>
<trkpt lat="48.02675578" lon="0.42072745"><ele></ele><time>2014-6-18T10:20:4Z</time></trkpt>
<trkpt lat="48.02658286" lon="0.42056593"><ele></ele><time>2014-6-18T10:20:7Z</time></trkpt>
<trkpt lat="48.02650340" lon="0.42049259"><ele></ele><time>2014-6-18T10:20:10Z</time></trkpt>
<trkpt lat="48.02636728" lon="0.42037030"><ele></ele><time>2014-6-18T10:20:13Z</time></trkpt>
<trkpt lat="48.02624926" lon="0.42027759"><ele></ele><time>2014-6-18T10:20:16Z</time></trkpt>
<trkpt lat="48.02610283" lon="0.42015723"><ele></ele><time>2014-6-18T10:20:19Z</time></trkpt>
<trkpt lat="48.02600753" lon="0.42007475"><ele></ele><time>2014-6-18T10:20:22Z</time></trkpt>
<trkpt lat="48.02593242" lon="0.42001792"><ele></ele><time>2014-6-18T10:20:25Z</time></trkpt>
<trkpt lat="48.02580368" lon="0.41992086"><ele></ele><time>2014-6-18T10:20:28Z</time></trkpt>
<trkpt lat="48.02566512" lon="0.41984324"><ele></ele><time>2014-6-18T10:20:31Z</time></trkpt>
<trkpt lat="48.02546455" lon="0.41974979"><ele></ele><time>2014-6-18T10:20:34Z</time></trkpt>
<trkpt lat="48.02527947" lon="0.41973327"><ele></ele><time>2014-6-18T10:20:37Z</time></trkpt>
<trkpt lat="48.02518669" lon="0.41972229"><ele></ele><time>2014-6-18T10:20:40Z</time></trkpt>
<trkpt lat="48.02510236" lon="0.41973604"><ele></ele><time>2014-6-18T10:20:43Z</time></trkpt>
<trkpt lat="48.02506934" lon="0.41974383"><ele></ele><time>2014-6-18T10:20:46Z</time></trkpt>
<trkpt lat="48.02493146" lon="0.41974434"><ele></ele><time>2014-6-18T10:20:49Z</time></trkpt>
<trkpt lat="48.02478519" lon="0.41972715"><ele></ele><time>2014-6-18T10:20:52Z</time></trkpt>
<trkpt lat="48.02463273" lon="0.41971358"><ele></ele><time>2014-6-18T10:20:55Z</time></trkpt>
<trkpt lat="48.02448713" lon="0.41971383"><ele></ele><time>2014-6-18T10:20:58Z</time></trkpt>
<trkpt lat="48.02430717" lon="0.41969245"><ele></ele><time>2014-6-18T10:21:1Z</time></trkpt>
<trkpt lat="48.02417583" lon="0.41965214"><ele></ele><time>2014-6-18T10:21:4Z</time></trkpt>
<trkpt lat="48.02394575" lon="0.41959137"><ele></ele><time>2014-6-18T10:21:7Z</time></trkpt>
<trkpt lat="48.02370745" lon="0.41950939"><ele></ele><time>2014-6-18T10:21:10Z</time></trkpt>
<trkpt lat="48.02346538" lon="0.41937989"><ele></ele><time>2014-6-18T10:21:13Z</time></trkpt>
<trkpt lat="48.02313622" lon="0.41904797"><ele></ele><time>2014-6-18T10:21:16Z</time></trkpt>
<trkpt lat="48.02309649" lon="0.41900313"><ele></ele><time>2014-6-18T10:21:19Z</time></trkpt>
<trkpt lat="48.02279843" lon="0.41861068"><ele></ele><time>2014-6-18T10:21:22Z</time></trkpt>
<trkpt lat="48.02276775" lon="0.41856115"><ele></ele><time>2014-6-18T10:21:25Z</time></trkpt>
<trkpt lat="48.02248956" lon="0.41831799"><ele></ele><time>2014-6-18T10:21:28Z</time></trkpt>
<trkpt lat="48.02218638" lon="0.41822587"><ele></ele><time>2014-6-18T10:21:31Z</time></trkpt>
<trkpt lat="48.02173175" lon="0.41822403"><ele></ele><time>2014-6-18T10:21:34Z</time></trkpt>
<trkpt lat="48.02128382" lon="0.41823434"><ele></ele><time>2014-6-18T10:21:37Z</time></trkpt>
<trkpt lat="48.02109984" lon="0.41823618"><ele></ele><time>2014-6-18T10:21:40Z</time></trkpt>
<trkpt lat="48.02075719" lon="0.41822243"><ele></ele><time>2014-6-18T10:21:43Z</time></trkpt>
<trkpt lat="48.02060002" lon="0.41821598"><ele></ele><time>2014-6-18T10:21:46Z</time></trkpt>
<trkpt lat="48.02018973" lon="0.41825504"><ele></ele><time>2014-6-18T10:21:49Z</time></trkpt>
<trkpt lat="48.02010197" lon="0.41826669"><ele></ele><time>2014-6-18T10:21:52Z</time></trkpt>
<trkpt lat="48.01983224" lon="0.41827088"><ele></ele><time>2014-6-18T10:21:55Z</time></trkpt>
<trkpt lat="48.01956218" lon="0.41827667"><ele></ele><time>2014-6-18T10:21:58Z</time></trkpt>
<trkpt lat="48.01938934" lon="0.41830743"><ele></ele><time>2014-6-18T10:22:1Z</time></trkpt>
<trkpt lat="48.01899112" lon="0.41842243"><ele></ele><time>2014-6-18T10:22:4Z</time></trkpt>
<trkpt lat="48.01887109" lon="0.41845629"><ele></ele><time>2014-6-18T10:22:7Z</time></trkpt>
<trkpt lat="48.01880873" lon="0.41831757"><ele></ele><time>2014-6-18T10:22:10Z</time></trkpt>
<trkpt lat="48.01878559" lon="0.41815043"><ele></ele><time>2014-6-18T10:22:13Z</time></trkpt>
<trkpt lat="48.01871108" lon="0.41778775"><ele></ele><time>2014-6-18T10:22:16Z</time></trkpt>
<trkpt lat="48.01860924" lon="0.41734175"><ele></ele><time>2014-6-18T10:22:19Z</time></trkpt>
<trkpt lat="48.01855098" lon="0.41714653"><ele></ele><time>2014-6-18T10:22:22Z</time></trkpt>
<trkpt lat="48.01840992" lon="0.41675979"><ele></ele><time>2014-6-18T10:22:25Z</time></trkpt>
<trkpt lat="48.01826742" lon="0.41637414"><ele></ele><time>2014-6-18T10:22:28Z</time></trkpt>
<trkpt lat="48.01805084" lon="0.41578917"><ele></ele><time>2014-6-18T10:22:31Z</time></trkpt>
<trkpt lat="48.01789326" lon="0.41520076"><ele></ele><time>2014-6-18T10:22:34Z</time></trkpt>
<trkpt lat="48.01780835" lon="0.41454747"><ele></ele><time>2014-6-18T10:22:37Z</time></trkpt>
<trkpt lat="48.01778865" lon="0.41394104"><ele></ele><time>2014-6-18T10:22:40Z</time></trkpt>
<trkpt lat="48.01779586" lon="0.41328315"><ele></ele><time>2014-6-18T10:22:43Z</time></trkpt>
<trkpt lat="48.01780206" lon="0.41291409"><ele></ele><time>2014-6-18T10:22:46Z</time></trkpt>
<trkpt lat="48.01780256" lon="0.41282424"><ele></ele><time>2014-6-18T10:22:49Z</time></trkpt>
<trkpt lat="48.01780558" lon="0.41256088"><ele></ele><time>2014-6-18T10:22:52Z</time></trkpt>
<trkpt lat="48.01780793" lon="0.41230573"><ele></ele><time>2014-6-18T10:22:55Z</time></trkpt>
<trkpt lat="48.01780692" lon="0.41222284"><ele></ele><time>2014-6-18T10:22:58Z</time></trkpt>
<trkpt lat="48.01780298" lon="0.41205629"><ele></ele><time>2014-6-18T10:23:1Z</time></trkpt>
<trkpt lat="48.01778530" lon="0.41181204"><ele></ele><time>2014-6-18T10:23:4Z</time></trkpt>
<trkpt lat="48.01784808" lon="0.41155379"><ele></ele><time>2014-6-18T10:23:7Z</time></trkpt>
<trkpt lat="48.01791983" lon="0.41149110"><ele></ele><time>2014-6-18T10:23:10Z</time></trkpt>
<trkpt lat="48.01799803" lon="0.41143033"><ele></ele><time>2014-6-18T10:23:13Z</time></trkpt>
<trkpt lat="48.01832275" lon="0.41124408"><ele></ele><time>2014-6-18T10:23:16Z</time></trkpt>
<trkpt lat="48.01843716" lon="0.41120016"><ele></ele><time>2014-6-18T10:23:19Z</time></trkpt>
<trkpt lat="48.01862969" lon="0.41114953"><ele></ele><time>2014-6-18T10:23:22Z</time></trkpt>
<trkpt lat="48.01866783" lon="0.41113612"><ele></ele><time>2014-6-18T10:23:25Z</time></trkpt>
<trkpt lat="48.01882088" lon="0.41106798"><ele></ele><time>2014-6-18T10:23:28Z</time></trkpt>
<trkpt lat="48.01893379" lon="0.41101148"><ele></ele><time>2014-6-18T10:23:31Z</time></trkpt>
<trkpt lat="48.01916555" lon="0.41091216"><ele></ele><time>2014-6-18T10:23:34Z</time></trkpt>
<trkpt lat="48.01920310" lon="0.41089732"><ele></ele><time>2014-6-18T10:23:37Z</time></trkpt>
<trkpt lat="48.01938633" lon="0.41085063"><ele></ele><time>2014-6-18T10:23:40Z</time></trkpt>
<trkpt lat="48.01956964" lon="0.41084033"><ele></ele><time>2014-6-18T10:23:43Z</time></trkpt>
<trkpt lat="48.01984356" lon="0.41089724"><ele></ele><time>2014-6-18T10:23:46Z</time></trkpt>
<trkpt lat="48.02015805" lon="0.41095055"><ele></ele><time>2014-6-18T10:23:49Z</time></trkpt>
<trkpt lat="48.02046608" lon="0.41088802"><ele></ele><time>2014-6-18T10:23:52Z</time></trkpt>
<trkpt lat="48.02084260" lon="0.41093135"><ele></ele><time>2014-6-18T10:23:55Z</time></trkpt>
<trkpt lat="48.02096648" lon="0.41079414"><ele></ele><time>2014-6-18T10:23:58Z</time></trkpt>
<trkpt lat="48.02098584" lon="0.41071979"><ele></ele><time>2014-6-18T10:24:1Z</time></trkpt>
<trkpt lat="48.02114074" lon="0.41024152"><ele></ele><time>2014-6-18T10:24:4Z</time></trkpt>
<trkpt lat="48.02130545" lon="0.40973333"><ele></ele><time>2014-6-18T10:24:7Z</time></trkpt>
<trkpt lat="48.02138097" lon="0.40951959"><ele></ele><time>2014-6-18T10:24:10Z</time></trkpt>
<trkpt lat="48.02143260" lon="0.40938062"><ele></ele><time>2014-6-18T10:24:13Z</time></trkpt>
<trkpt lat="48.02137418" lon="0.40926746"><ele></ele><time>2014-6-18T10:24:16Z</time></trkpt>
<trkpt lat="48.02105902" lon="0.40921004"><ele></ele><time>2014-6-18T10:24:19Z</time></trkpt>
<trkpt lat="48.02086908" lon="0.40913335"><ele></ele><time>2014-6-18T10:24:22Z</time></trkpt>
<trkpt lat="48.02057924" lon="0.40899999"><ele></ele><time>2014-6-18T10:24:25Z</time></trkpt>
<trkpt lat="48.02034195" lon="0.40891844"><ele></ele><time>2014-6-18T10:24:28Z</time></trkpt>
<trkpt lat="48.02009024" lon="0.40891282"><ele></ele><time>2014-6-18T10:24:31Z</time></trkpt>
<trkpt lat="48.01985655" lon="0.40893923"><ele></ele><time>2014-6-18T10:24:34Z</time></trkpt>
<trkpt lat="48.01967843" lon="0.40894803"><ele></ele><time>2014-6-18T10:24:37Z</time></trkpt>
<trkpt lat="48.01934433" lon="0.40890863"><ele></ele><time>2014-6-18T10:24:40Z</time></trkpt>
<trkpt lat="48.01919874" lon="0.40889690"><ele></ele><time>2014-6-18T10:24:43Z</time></trkpt>
<trkpt lat="48.01888593" lon="0.40884434"><ele></ele><time>2014-6-18T10:24:46Z</time></trkpt>
<trkpt lat="48.01881392" lon="0.40881744"><ele></ele><time>2014-6-18T10:24:49Z</time></trkpt>
<trkpt lat="48.01869943" lon="0.40874736"><ele></ele><time>2014-6-18T10:24:52Z</time></trkpt>
<trkpt lat="48.01852852" lon="0.40857185"><ele></ele><time>2014-6-18T10:24:55Z</time></trkpt>
<trkpt lat="48.01835862" lon="0.40840002"><ele></ele><time>2014-6-18T10:24:58Z</time></trkpt>
<trkpt lat="48.01832065" lon="0.40836892"><ele></ele><time>2014-6-18T10:25:1Z</time></trkpt>
<trkpt lat="48.01806944" lon="0.40822903"><ele></ele><time>2014-6-18T10:25:4Z</time></trkpt>
<trkpt lat="48.01794589" lon="0.40817413"><ele></ele><time>2014-6-18T10:25:7Z</time></trkpt>
<trkpt lat="48.01790348" lon="0.40815753"><ele></ele><time>2014-6-18T10:25:10Z</time></trkpt>
<trkpt lat="48.01772428" lon="0.40796575"><ele></ele><time>2014-6-18T10:25:13Z</time></trkpt>
<trkpt lat="48.01768513" lon="0.40792116"><ele></ele><time>2014-6-18T10:25:16Z</time></trkpt>
<trkpt lat="48.01732488" lon="0.40754213"><ele></ele><time>2014-6-18T10:25:19Z</time></trkpt>
<trkpt lat="48.01717769" lon="0.40743266"><ele></ele><time>2014-6-18T10:25:22Z</time></trkpt>
<trkpt lat="48.01691182" lon="0.40731263"><ele></ele><time>2014-6-18T10:25:25Z</time></trkpt>
<trkpt lat="48.01652818" lon="0.40700259"><ele></ele><time>2014-6-18T10:25:28Z</time></trkpt>
<trkpt lat="48.01642869" lon="0.40691927"><ele></ele><time>2014-6-18T10:25:31Z</time></trkpt>
<trkpt lat="48.01626993" lon="0.40661962"><ele></ele><time>2014-6-18T10:25:34Z</time></trkpt>
<trkpt lat="48.01612048" lon="0.40647109"><ele></ele><time>2014-6-18T10:25:37Z</time></trkpt>
<trkpt lat="48.01582083" lon="0.40648819"><ele></ele><time>2014-6-18T10:25:40Z</time></trkpt>
<trkpt lat="48.01573534" lon="0.40636489"><ele></ele><time>2014-6-18T10:25:43Z</time></trkpt>
<trkpt lat="48.01558714" lon="0.40608695"><ele></ele><time>2014-6-18T10:25:46Z</time></trkpt>
<trkpt lat="48.01551305" lon="0.40594923"><ele></ele><time>2014-6-18T10:25:49Z</time></trkpt>
<trkpt lat="48.01534122" lon="0.40579392"><ele></ele><time>2014-6-18T10:25:52Z</time></trkpt>
<trkpt lat="48.01527366" lon="0.40578143"><ele></ele><time>2014-6-18T10:25:55Z</time></trkpt>
<trkpt lat="48.01475767" lon="0.40581319"><ele></ele><time>2014-6-18T10:25:58Z</time></trkpt>
<trkpt lat="48.01435844" lon="0.40577598"><ele></ele><time>2014-6-18T10:26:1Z</time></trkpt>
<trkpt lat="48.01408536" lon="0.40574346"><ele></ele><time>2014-6-18T10:26:4Z</time></trkpt>
<trkpt lat="48.01393968" lon="0.40556685"><ele></ele><time>2014-6-18T10:26:7Z</time></trkpt>
<trkpt lat="48.01390372" lon="0.40542444"><ele></ele><time>2014-6-18T10:26:10Z</time></trkpt>
<trkpt lat="48.01379275" lon="0.40484576"><ele></ele><time>2014-6-18T10:26:13Z</time></trkpt>
<trkpt lat="48.01378864" lon="0.40438525"><ele></ele><time>2014-6-18T10:26:16Z</time></trkpt>
<trkpt lat="48.01380389" lon="0.40419406"><ele></ele><time>2014-6-18T10:26:19Z</time></trkpt>
<trkpt lat="48.01390246" lon="0.40380280"><ele></ele><time>2014-6-18T10:26:22Z</time></trkpt>
<trkpt lat="48.01393054" lon="0.40370238"><ele></ele><time>2014-6-18T10:26:25Z</time></trkpt>
<trkpt lat="48.01396005" lon="0.40359878"><ele></ele><time>2014-6-18T10:26:28Z</time></trkpt>
<trkpt lat="48.01400707" lon="0.40327373"><ele></ele><time>2014-6-18T10:26:31Z</time></trkpt>
<trkpt lat="48.01400866" lon="0.40275682"><ele></ele><time>2014-6-18T10:26:34Z</time></trkpt>
<trkpt lat="48.01401277" lon="0.40248608"><ele></ele><time>2014-6-18T10:26:37Z</time></trkpt>
<trkpt lat="48.01416633" lon="0.40188267"><ele></ele><time>2014-6-18T10:26:40Z</time></trkpt>
<trkpt lat="48.01438937" lon="0.40135947"><ele></ele><time>2014-6-18T10:26:43Z</time></trkpt>
<trkpt lat="48.01448509" lon="0.40088732"><ele></ele><time>2014-6-18T10:26:46Z</time></trkpt>
<trkpt lat="48.01448870" lon="0.40063670"><ele></ele><time>2014-6-18T10:26:49Z</time></trkpt>
<trkpt lat="48.01454879" lon="0.39990203"><ele></ele><time>2014-6-18T10:26:52Z</time></trkpt>
<trkpt lat="48.01460378" lon="0.39964956"><ele></ele><time>2014-6-18T10:26:55Z</time></trkpt>
<trkpt lat="48.01465943" lon="0.39938503"><ele></ele><time>2014-6-18T10:26:58Z</time></trkpt>
<trkpt lat="48.01474476" lon="0.39846160"><ele></ele><time>2014-6-18T10:27:1Z</time></trkpt>
<trkpt lat="48.01476823" lon="0.39811903"><ele></ele><time>2014-6-18T10:27:4Z</time></trkpt>
<trkpt lat="48.01481266" lon="0.39793714"><ele></ele><time>2014-6-18T10:27:7Z</time></trkpt>
<trkpt lat="48.01484283" lon="0.39788199"><ele></ele><time>2014-6-18T10:27:10Z</time></trkpt>
<trkpt lat="48.01484115" lon="0.39770999"><ele></ele><time>2014-6-18T10:27:13Z</time></trkpt>
<trkpt lat="48.01484987" lon="0.39764076"><ele></ele><time>2014-6-18T10:27:16Z</time></trkpt>
<trkpt lat="48.01488684" lon="0.39728955"><ele></ele><time>2014-6-18T10:27:19Z</time></trkpt>
<trkpt lat="48.01491902" lon="0.39695922"><ele></ele><time>2014-6-18T10:27:22Z</time></trkpt>
<trkpt lat="48.01493302" lon="0.39685378"><ele></ele><time>2014-6-18T10:27:25Z</time></trkpt>
<trkpt lat="48.01505280" lon="0.39676552"><ele></ele><time>2014-6-18T10:27:28Z</time></trkpt>
<trkpt lat="48.01530568" lon="0.39667784"><ele></ele><time>2014-6-18T10:27:31Z</time></trkpt>
<trkpt lat="48.01565856" lon="0.39657583"><ele></ele><time>2014-6-18T10:27:34Z</time></trkpt>
<trkpt lat="48.01613616" lon="0.39644072"><ele></ele><time>2014-6-18T10:27:37Z</time></trkpt>
<trkpt lat="48.01644797" lon="0.39627434"><ele></ele><time>2014-6-18T10:27:40Z</time></trkpt>
<trkpt lat="48.01672222" lon="0.39612690"><ele></ele><time>2014-6-18T10:27:43Z</time></trkpt>
<trkpt lat="48.01677972" lon="0.39608658"><ele></ele><time>2014-6-18T10:27:46Z</time></trkpt>
<trkpt lat="48.01688072" lon="0.39599488"><ele></ele><time>2014-6-18T10:27:49Z</time></trkpt>
<trkpt lat="48.01703193" lon="0.39587729"><ele></ele><time>2014-6-18T10:27:52Z</time></trkpt>
<trkpt lat="48.01729437" lon="0.39570596"><ele></ele><time>2014-6-18T10:27:55Z</time></trkpt>
<trkpt lat="48.01755169" lon="0.39547454"><ele></ele><time>2014-6-18T10:27:58Z</time></trkpt>
<trkpt lat="48.01760257" lon="0.39542416"><ele></ele><time>2014-6-18T10:28:1Z</time></trkpt>
<trkpt lat="48.01783383" lon="0.39513557"><ele></ele><time>2014-6-18T10:28:4Z</time></trkpt>
<trkpt lat="48.01801756" lon="0.39487674"><ele></ele><time>2014-6-18T10:28:7Z</time></trkpt>
<trkpt lat="48.01810188" lon="0.39475663"><ele></ele><time>2014-6-18T10:28:10Z</time></trkpt>
<trkpt lat="48.01829659" lon="0.39446477"><ele></ele><time>2014-6-18T10:28:13Z</time></trkpt>
<trkpt lat="48.01837019" lon="0.39433150"><ele></ele><time>2014-6-18T10:28:16Z</time></trkpt>
<trkpt lat="48.01843372" lon="0.39427232"><ele></ele><time>2014-6-18T10:28:19Z</time></trkpt>
<trkpt lat="48.01849969" lon="0.39420912"><ele></ele><time>2014-6-18T10:28:22Z</time></trkpt>
<trkpt lat="48.01862374" lon="0.39397552"><ele></ele><time>2014-6-18T10:28:25Z</time></trkpt>
<trkpt lat="48.01873513" lon="0.39369984"><ele></ele><time>2014-6-18T10:28:28Z</time></trkpt>
<trkpt lat="48.01892348" lon="0.39337814"><ele></ele><time>2014-6-18T10:28:31Z</time></trkpt>
<trkpt lat="48.01903923" lon="0.39324554"><ele></ele><time>2014-6-18T10:28:34Z</time></trkpt>
<trkpt lat="48.01905138" lon="0.39322064"><ele></ele><time>2014-6-18T10:28:37Z</time></trkpt>
<trkpt lat="48.01912188" lon="0.39311277"><ele></ele><time>2014-6-18T10:28:40Z</time></trkpt>
<trkpt lat="48.01935992" lon="0.39273022"><ele></ele><time>2014-6-18T10:28:43Z</time></trkpt>
<trkpt lat="48.01949286" lon="0.39250273"><ele></ele><time>2014-6-18T10:28:46Z</time></trkpt>
<trkpt lat="48.01960769" lon="0.39233803"><ele></ele><time>2014-6-18T10:28:49Z</time></trkpt>
<trkpt lat="48.01963032" lon="0.39231992"><ele></ele><time>2014-6-18T10:28:52Z</time></trkpt>
<trkpt lat="48.01964038" lon="0.39240969"><ele></ele><time>2014-6-18T10:28:55Z</time></trkpt>
<trkpt lat="48.01959822" lon="0.39270013"><ele></ele><time>2014-6-18T10:28:58Z</time></trkpt>
<trkpt lat="48.01953678" lon="0.39318033"><ele></ele><time>2014-6-18T10:29:1Z</time></trkpt>
<trkpt lat="48.01940845" lon="0.39381006"><ele></ele><time>2014-6-18T10:29:4Z</time></trkpt>
<trkpt lat="48.01923134" lon="0.39442588"><ele></ele><time>2014-6-18T10:29:7Z</time></trkpt>
<trkpt lat="48.01903940" lon="0.39509249"><ele></ele><time>2014-6-18T10:29:10Z</time></trkpt>
<trkpt lat="48.01885114" lon="0.39563756"><ele></ele><time>2014-6-18T10:29:13Z</time></trkpt>
<trkpt lat="48.01862315" lon="0.39638548"><ele></ele><time>2014-6-18T10:29:16Z</time></trkpt>
<trkpt lat="48.01845543" lon="0.39694657"><ele></ele><time>2014-6-18T10:29:19Z</time></trkpt>
<trkpt lat="48.01850799" lon="0.39714505"><ele></ele><time>2014-6-18T10:29:22Z</time></trkpt>
<trkpt lat="48.01859792" lon="0.39719014"><ele></ele><time>2014-6-18T10:29:25Z</time></trkpt>
<trkpt lat="48.01891727" lon="0.39734655"><ele></ele><time>2014-6-18T10:29:28Z</time></trkpt>
<trkpt lat="48.01912699" lon="0.39749290"><ele></ele><time>2014-6-18T10:29:31Z</time></trkpt>
<trkpt lat="48.01913395" lon="0.39747949"><ele></ele><time>2014-6-18T10:29:34Z</time></trkpt>
<trkpt lat="48.01900009" lon="0.39736843"><ele></ele><time>2014-6-18T10:29:37Z</time></trkpt>
<trkpt lat="48.01871468" lon="0.39722166"><ele></ele><time>2014-6-18T10:29:40Z</time></trkpt>
<trkpt lat="48.01866347" lon="0.39720523"><ele></ele><time>2014-6-18T10:29:43Z</time></trkpt>
<trkpt lat="48.01846666" lon="0.39710842"><ele></ele><time>2014-6-18T10:29:46Z</time></trkpt>
<trkpt lat="48.01843959" lon="0.39711219"><ele></ele><time>2014-6-18T10:29:49Z</time></trkpt>
<trkpt lat="48.01832694" lon="0.39733683"><ele></ele><time>2014-6-18T10:29:52Z</time></trkpt>
<trkpt lat="48.01817883" lon="0.39771862"><ele></ele><time>2014-6-18T10:29:55Z</time></trkpt>
<trkpt lat="48.01813340" lon="0.39783983"><ele></ele><time>2014-6-18T10:29:58Z</time></trkpt>
<trkpt lat="48.01798529" lon="0.39814048"><ele></ele><time>2014-6-18T10:30:1Z</time></trkpt>
<trkpt lat="48.01760358" lon="0.39862270"><ele></ele><time>2014-6-18T10:30:4Z</time></trkpt>
<trkpt lat="48.01757860" lon="0.39865572"><ele></ele><time>2014-6-18T10:30:7Z</time></trkpt>
<trkpt lat="48.01759042" lon="0.39876385"><ele></ele><time>2014-6-18T10:30:10Z</time></trkpt>
<trkpt lat="48.01762512" lon="0.39878354"><ele></ele><time>2014-6-18T10:30:13Z</time></trkpt>
<trkpt lat="48.01792444" lon="0.39889108"><ele></ele><time>2014-6-18T10:30:16Z</time></trkpt>
<trkpt lat="48.01837086" lon="0.39905193"><ele></ele><time>2014-6-18T10:30:19Z</time></trkpt>
<trkpt lat="48.01884812" lon="0.39921655"><ele></ele><time>2014-6-18T10:30:22Z</time></trkpt>
<trkpt lat="48.01944089" lon="0.39940959"><ele></ele><time>2014-6-18T10:30:25Z</time></trkpt>
<trkpt lat="48.01989175" lon="0.39955527"><ele></ele><time>2014-6-18T10:30:28Z</time></trkpt>
<trkpt lat="48.02041026" lon="0.39967982"><ele></ele><time>2014-6-18T10:30:31Z</time></trkpt>
<trkpt lat="48.02088836" lon="0.39978719"><ele></ele><time>2014-6-18T10:30:34Z</time></trkpt>
<trkpt lat="48.02178506" lon="0.39995718"><ele></ele><time>2014-6-18T10:30:37Z</time></trkpt>
<trkpt lat="48.02226392" lon="0.40014083"><ele></ele><time>2014-6-18T10:30:40Z</time></trkpt>
<trkpt lat="48.02287026" lon="0.40048289"><ele></ele><time>2014-6-18T10:30:43Z</time></trkpt>
<trkpt lat="48.02326882" lon="0.40068565"><ele></ele><time>2014-6-18T10:30:46Z</time></trkpt>
<trkpt lat="48.02344434" lon="0.40068557"><ele></ele><time>2014-6-18T10:30:49Z</time></trkpt>
<trkpt lat="48.02348566" lon="0.40062354"><ele></ele><time>2014-6-18T10:30:52Z</time></trkpt>
<trkpt lat="48.02378423" lon="0.40000227"><ele></ele><time>2014-6-18T10:30:55Z</time></trkpt>
<trkpt lat="48.02403912" lon="0.39951109"><ele></ele><time>2014-6-18T10:30:58Z</time></trkpt>
<trkpt lat="48.02418899" lon="0.39926215"><ele></ele><time>2014-6-18T10:31:1Z</time></trkpt>
<trkpt lat="48.02435889" lon="0.39904489"><ele></ele><time>2014-6-18T10:31:4Z</time></trkpt>
<trkpt lat="48.02443022" lon="0.39897214"><ele></ele><time>2014-6-18T10:31:7Z</time></trkpt>
<trkpt lat="48.02474739" lon="0.39860275"><ele></ele><time>2014-6-18T10:31:10Z</time></trkpt>
<trkpt lat="48.02491796" lon="0.39837518"><ele></ele><time>2014-6-18T10:31:13Z</time></trkpt>
<trkpt lat="48.02502634" lon="0.39802599"><ele></ele><time>2014-6-18T10:31:16Z</time></trkpt>
<trkpt lat="48.02522264" lon="0.39758879"><ele></ele><time>2014-6-18T10:31:19Z</time></trkpt>
<trkpt lat="48.02525693" lon="0.39747152"><ele></ele><time>2014-6-18T10:31:22Z</time></trkpt>
<trkpt lat="48.02533764" lon="0.39701186"><ele></ele><time>2014-6-18T10:31:25Z</time></trkpt>
<trkpt lat="48.02552263" lon="0.39648933"><ele></ele><time>2014-6-18T10:31:28Z</time></trkpt>
<trkpt lat="48.02560972" lon="0.39626478"><ele></ele><time>2014-6-18T10:31:31Z</time></trkpt>
<trkpt lat="48.02579856" lon="0.39576002"><ele></ele><time>2014-6-18T10:31:34Z</time></trkpt>
<trkpt lat="48.02598112" lon="0.39516139"><ele></ele><time>2014-6-18T10:31:37Z</time></trkpt>
<trkpt lat="48.02617357" lon="0.39470399"><ele></ele><time>2014-6-18T10:31:40Z</time></trkpt>
<trkpt lat="48.02626393" lon="0.39452378"><ele></ele><time>2014-6-18T10:31:43Z</time></trkpt>
<trkpt lat="48.02638153" lon="0.39426008"><ele></ele><time>2014-6-18T10:31:46Z</time></trkpt>
<trkpt lat="48.02657037" lon="0.39383286"><ele></ele><time>2014-6-18T10:31:49Z</time></trkpt>
<trkpt lat="48.02666450" lon="0.39353128"><ele></ele><time>2014-6-18T10:31:52Z</time></trkpt>
<trkpt lat="48.02678897" lon="0.39312718"><ele></ele><time>2014-6-18T10:31:55Z</time></trkpt>
<trkpt lat="48.02700279" lon="0.39254892"><ele></ele><time>2014-6-18T10:31:58Z</time></trkpt>
<trkpt lat="48.02703456" lon="0.39245663"><ele></ele><time>2014-6-18T10:32:1Z</time></trkpt>
<trkpt lat="48.02724947" lon="0.39179916"><ele></ele><time>2014-6-18T10:32:4Z</time></trkpt>
<trkpt lat="48.02735316" lon="0.39153395"><ele></ele><time>2014-6-18T10:32:7Z</time></trkpt>
<trkpt lat="48.02746849" lon="0.39118853"><ele></ele><time>2014-6-18T10:32:10Z</time></trkpt>
<trkpt lat="48.02771182" lon="0.39050968"><ele></ele><time>2014-6-18T10:32:13Z</time></trkpt>
<trkpt lat="48.02792589" lon="0.38991499"><ele></ele><time>2014-6-18T10:32:16Z</time></trkpt>
<trkpt lat="48.02816243" lon="0.38924729"><ele></ele><time>2014-6-18T10:32:19Z</time></trkpt>
<trkpt lat="48.02842839" lon="0.38841563"><ele></ele><time>2014-6-18T10:32:22Z</time></trkpt>
<trkpt lat="48.02856769" lon="0.38797106"><ele></ele><time>2014-6-18T10:32:25Z</time></trkpt>
<trkpt lat="48.02866995" lon="0.38785522"><ele></ele><time>2014-6-18T10:32:28Z</time></trkpt>
<trkpt lat="48.02873299" lon="0.38792152"><ele></ele><time>2014-6-18T10:32:31Z</time></trkpt>
<trkpt lat="48.02877339" lon="0.38800073"><ele></ele><time>2014-6-18T10:32:34Z</time></trkpt>
<trkpt lat="48.02889903" lon="0.38811330"><ele></ele><time>2014-6-18T10:32:37Z</time></trkpt>
<trkpt lat="48.02894128" lon="0.38810693"><ele></ele><time>2014-6-18T10:32:40Z</time></trkpt>
<trkpt lat="48.02907245" lon="0.38807038"><ele></ele><time>2014-6-18T10:32:43Z</time></trkpt>
<trkpt lat="48.02947914" lon="0.38796536"><ele></ele><time>2014-6-18T10:32:46Z</time></trkpt>
<trkpt lat="48.02977326" lon="0.38787827"><ele></ele><time>2014-6-18T10:32:49Z</time></trkpt>
<trkpt lat="48.02996186" lon="0.38784826"><ele></ele><time>2014-6-18T10:32:52Z</time></trkpt>
<trkpt lat="48.03012296" lon="0.38781515"><ele></ele><time>2014-6-18T10:32:55Z</time></trkpt>
<trkpt lat="48.03018616" lon="0.38796552"><ele></ele><time>2014-6-18T10:32:58Z</time></trkpt>
<trkpt lat="48.03019672" lon="0.38802998"><ele></ele><time>2014-6-18T10:33:1Z</time></trkpt>
<trkpt lat="48.03024248" lon="0.38819368"><ele></ele><time>2014-6-18T10:33:4Z</time></trkpt>
<trkpt lat="48.03033753" lon="0.38804004"><ele></ele><time>2014-6-18T10:33:7Z</time></trkpt>
<trkpt lat="48.03043719" lon="0.38790685"><ele></ele><time>2014-6-18T10:33:10Z</time></trkpt>
<trkpt lat="48.03047273" lon="0.38787156"><ele></ele><time>2014-6-18T10:33:13Z</time></trkpt>
<trkpt lat="48.03052437" lon="0.38782144"><ele></ele><time>2014-6-18T10:33:16Z</time></trkpt>
<trkpt lat="48.03068756" lon="0.38776662"><ele></ele><time>2014-6-18T10:33:19Z</time></trkpt>
<trkpt lat="48.03076870" lon="0.38781507"><ele></ele><time>2014-6-18T10:33:22Z</time></trkpt>
<trkpt lat="48.03088529" lon="0.38790333"><ele></ele><time>2014-6-18T10:33:25Z</time></trkpt>
<trkpt lat="48.03093315" lon="0.38809419"><ele></ele><time>2014-6-18T10:33:28Z</time></trkpt>
<trkpt lat="48.03098545" lon="0.38836182"><ele></ele><time>2014-6-18T10:33:31Z</time></trkpt>
<trkpt lat="48.03105737" lon="0.38893598"><ele></ele><time>2014-6-18T10:33:34Z</time></trkpt>
<trkpt lat="48.03120037" lon="0.38916766"><ele></ele><time>2014-6-18T10:33:37Z</time></trkpt>
<trkpt lat="48.03127555" lon="0.38923874"><ele></ele><time>2014-6-18T10:33:40Z</time></trkpt>
<trkpt lat="48.03131805" lon="0.38932155"><ele></ele><time>2014-6-18T10:33:43Z</time></trkpt>
<trkpt lat="48.03138452" lon="0.38946438"><ele></ele><time>2014-6-18T10:33:46Z</time></trkpt>
<trkpt lat="48.03145903" lon="0.38948810"><ele></ele><time>2014-6-18T10:33:49Z</time></trkpt>
<trkpt lat="48.03149289" lon="0.38949623"><ele></ele><time>2014-6-18T10:33:52Z</time></trkpt>
<trkpt lat="48.03151863" lon="0.38952028"><ele></ele><time>2014-6-18T10:33:55Z</time></trkpt>
<trkpt lat="48.03150999" lon="0.38962673"><ele></ele><time>2014-6-18T10:33:58Z</time></trkpt>
<trkpt lat="48.03152693" lon="0.38970343"><ele></ele><time>2014-6-18T10:34:1Z</time></trkpt>
<trkpt lat="48.03153179" lon="0.38976269"><ele></ele><time>2014-6-18T10:34:4Z</time></trkpt>
<trkpt lat="48.03150228" lon="0.39000836"><ele></ele><time>2014-6-18T10:34:7Z</time></trkpt>
<trkpt lat="48.03150287" lon="0.39034045"><ele></ele><time>2014-6-18T10:34:10Z</time></trkpt>
<trkpt lat="48.03158878" lon="0.39109239"><ele></ele><time>2014-6-18T10:34:13Z</time></trkpt>
<trkpt lat="48.03162508" lon="0.39138886"><ele></ele><time>2014-6-18T10:34:16Z</time></trkpt>
<trkpt lat="48.03165592" lon="0.39158223"><ele></ele><time>2014-6-18T10:34:19Z</time></trkpt>
<trkpt lat="48.03177369" lon="0.39164208"><ele></ele><time>2014-6-18T10:34:22Z</time></trkpt>
<trkpt lat="48.03183219" lon="0.39165306"><ele></ele><time>2014-6-18T10:34:25Z</time></trkpt>
<trkpt lat="48.03188969" lon="0.39176906"><ele></ele><time>2014-6-18T10:34:28Z</time></trkpt>
<trkpt lat="48.03198935" lon="0.39223334"><ele></ele><time>2014-6-18T10:34:31Z</time></trkpt>
<trkpt lat="48.03202976" lon="0.39258119"><ele></ele><time>2014-6-18T10:34:34Z</time></trkpt>
<trkpt lat="48.03199732" lon="0.39286684"><ele></ele><time>2014-6-18T10:34:37Z</time></trkpt>
<trkpt lat="48.03200888" lon="0.39287254"><ele></ele><time>2014-6-18T10:34:40Z</time></trkpt>
<trkpt lat="48.03201098" lon="0.39280758"><ele></ele><time>2014-6-18T10:34:43Z</time></trkpt>
<trkpt lat="48.03210746" lon="0.39274522"><ele></ele><time>2014-6-18T10:34:46Z</time></trkpt>
<trkpt lat="48.03222648" lon="0.39272360"><ele></ele><time>2014-6-18T10:34:49Z</time></trkpt>
<trkpt lat="48.03237065" lon="0.39267238"><ele></ele><time>2014-6-18T10:34:52Z</time></trkpt>
<trkpt lat="48.03272135" lon="0.39252369"><ele></ele><time>2014-6-18T10:34:55Z</time></trkpt>
<trkpt lat="48.03309325" lon="0.39242017"><ele></ele><time>2014-6-18T10:34:58Z</time></trkpt>
<trkpt lat="48.03358896" lon="0.39229486"><ele></ele><time>2014-6-18T10:35:1Z</time></trkpt>
<trkpt lat="48.03378643" lon="0.39236804"><ele></ele><time>2014-6-18T10:35:4Z</time></trkpt>
<trkpt lat="48.03383723" lon="0.39244574"><ele></ele><time>2014-6-18T10:35:7Z</time></trkpt>
<trkpt lat="48.03403395" lon="0.39251304"><ele></ele><time>2014-6-18T10:35:10Z</time></trkpt>
<trkpt lat="48.03409304" lon="0.39245127"><ele></ele><time>2014-6-18T10:35:13Z</time></trkpt>
<trkpt lat="48.03441122" lon="0.39214374"><ele></ele><time>2014-6-18T10:35:16Z</time></trkpt>
<trkpt lat="48.03506652" lon="0.39183889"><ele></ele><time>2014-6-18T10:35:19Z</time></trkpt>
<trkpt lat="48.03581100" lon="0.39147109"><ele></ele><time>2014-6-18T10:35:22Z</time></trkpt>
<trkpt lat="48.03602960" lon="0.39148768"><ele></ele><time>2014-6-18T10:35:25Z</time></trkpt>
<trkpt lat="48.03617922" lon="0.39174057"><ele></ele><time>2014-6-18T10:35:28Z</time></trkpt>
<trkpt lat="48.03640435" lon="0.39249318"><ele></ele><time>2014-6-18T10:35:31Z</time></trkpt>
<trkpt lat="48.03670786" lon="0.39352088"><ele></ele><time>2014-6-18T10:35:34Z</time></trkpt>
<trkpt lat="48.03695085" lon="0.39437064"><ele></ele><time>2014-6-18T10:35:37Z</time></trkpt>
<trkpt lat="48.03730113" lon="0.39559130"><ele></ele><time>2014-6-18T10:35:40Z</time></trkpt>
<trkpt lat="48.03756776" lon="0.39652579"><ele></ele><time>2014-6-18T10:35:43Z</time></trkpt>
<trkpt lat="48.03781084" lon="0.39732560"><ele></ele><time>2014-6-18T10:35:46Z</time></trkpt>
<trkpt lat="48.03781159" lon="0.39770362"><ele></ele><time>2014-6-18T10:35:49Z</time></trkpt>
<trkpt lat="48.03767706" lon="0.39777663"><ele></ele><time>2014-6-18T10:35:52Z</time></trkpt>
<trkpt lat="48.03710533" lon="0.39804359"><ele></ele><time>2014-6-18T10:35:55Z</time></trkpt>
<trkpt lat="48.03656872" lon="0.39831952"><ele></ele><time>2014-6-18T10:35:58Z</time></trkpt>
<trkpt lat="48.03606388" lon="0.39860157"><ele></ele><time>2014-6-18T10:36:1Z</time></trkpt>
<trkpt lat="48.03576649" lon="0.39878002"><ele></ele><time>2014-6-18T10:36:4Z</time></trkpt>
<trkpt lat="48.03522209" lon="0.39905394"><ele></ele><time>2014-6-18T10:36:7Z</time></trkpt>
<trkpt lat="48.03510323" lon="0.39911228"><ele></ele><time>2014-6-18T10:36:10Z</time></trkpt>
<trkpt lat="48.03494305" lon="0.39918738"><ele></ele><time>2014-6-18T10:36:13Z</time></trkpt>
<trkpt lat="48.03484976" lon="0.39942627"><ele></ele><time>2014-6-18T10:36:16Z</time></trkpt>
<trkpt lat="48.03484892" lon="0.39966272"><ele></ele><time>2014-6-18T10:36:19Z</time></trkpt>
<trkpt lat="48.03491749" lon="0.39991359"><ele></ele><time>2014-6-18T10:36:22Z</time></trkpt>
<trkpt lat="48.03505478" lon="0.40014845"><ele></ele><time>2014-6-18T10:36:25Z</time></trkpt>
<trkpt lat="48.03509552" lon="0.40045867"><ele></ele><time>2014-6-18T10:36:28Z</time></trkpt>
<trkpt lat="48.03520205" lon="0.40073083"><ele></ele><time>2014-6-18T10:36:31Z</time></trkpt>
<trkpt lat="48.03524715" lon="0.40074424"><ele></ele><time>2014-6-18T10:36:34Z</time></trkpt>
<trkpt lat="48.03548637" lon="0.40088547"><ele></ele><time>2014-6-18T10:36:37Z</time></trkpt>
<trkpt lat="48.03576389" lon="0.40119745"><ele></ele><time>2014-6-18T10:36:40Z</time></trkpt>
<trkpt lat="48.03595366" lon="0.40137732"><ele></ele><time>2014-6-18T10:36:43Z</time></trkpt>
<trkpt lat="48.03619246" lon="0.40160162"><ele></ele><time>2014-6-18T10:36:46Z</time></trkpt>
<trkpt lat="48.03648717" lon="0.40196707"><ele></ele><time>2014-6-18T10:36:49Z</time></trkpt>
<trkpt lat="48.03653402" lon="0.40202935"><ele></ele><time>2014-6-18T10:36:52Z</time></trkpt>
<trkpt lat="48.03675866" lon="0.40235708"><ele></ele><time>2014-6-18T10:36:55Z</time></trkpt>
<trkpt lat="48.03696125" lon="0.40261659"><ele></ele><time>2014-6-18T10:36:58Z</time></trkpt>
<trkpt lat="48.03730977" lon="0.40307466"><ele></ele><time>2014-6-18T10:37:1Z</time></trkpt>
<trkpt lat="48.03751747" lon="0.40331882"><ele></ele><time>2014-6-18T10:37:4Z</time></trkpt>
<trkpt lat="48.03767949" lon="0.40357598"><ele></ele><time>2014-6-18T10:37:7Z</time></trkpt>
<trkpt lat="48.03770967" lon="0.40384219"><ele></ele><time>2014-6-18T10:37:10Z</time></trkpt>
<trkpt lat="48.03771637" lon="0.40402324"><ele></ele><time>2014-6-18T10:37:13Z</time></trkpt>
<trkpt lat="48.03773892" lon="0.40419163"><ele></ele><time>2014-6-18T10:37:16Z</time></trkpt>
<trkpt lat="48.03779550" lon="0.40459975"><ele></ele><time>2014-6-18T10:37:19Z</time></trkpt>
<trkpt lat="48.03784872" lon="0.40474115"><ele></ele><time>2014-6-18T10:37:22Z</time></trkpt>
<trkpt lat="48.03795392" lon="0.40531732"><ele></ele><time>2014-6-18T10:37:25Z</time></trkpt>
<trkpt lat="48.03805852" lon="0.40604437"><ele></ele><time>2014-6-18T10:37:28Z</time></trkpt>
<trkpt lat="48.03806229" lon="0.40610304"><ele></ele><time>2014-6-18T10:37:31Z</time></trkpt>
<trkpt lat="48.03796674" lon="0.40621125"><ele></ele><time>2014-6-18T10:37:34Z</time></trkpt>
<trkpt lat="48.03790337" lon="0.40641543"><ele></ele><time>2014-6-18T10:37:37Z</time></trkpt>
<trkpt lat="48.03791343" lon="0.40649464"><ele></ele><time>2014-6-18T10:37:40Z</time></trkpt>
<trkpt lat="48.03802952" lon="0.40708129"><ele></ele><time>2014-6-18T10:37:43Z</time></trkpt>
<trkpt lat="48.03819934" lon="0.40801680"><ele></ele><time>2014-6-18T10:37:46Z</time></trkpt>
<trkpt lat="48.03832197" lon="0.40869405"><ele></ele><time>2014-6-18T10:37:49Z</time></trkpt>
<trkpt lat="48.03848784" lon="0.40892992"><ele></ele><time>2014-6-18T10:37:52Z</time></trkpt>
<trkpt lat="48.03855096" lon="0.40892590"><ele></ele><time>2014-6-18T10:37:55Z</time></trkpt>
<trkpt lat="48.03922093" lon="0.40878642"><ele></ele><time>2014-6-18T10:37:58Z</time></trkpt>
<trkpt lat="48.03949233" lon="0.40874904"><ele></ele><time>2014-6-18T10:38:1Z</time></trkpt>
<trkpt lat="48.03994378" lon="0.40864745"><ele></ele><time>2014-6-18T10:38:4Z</time></trkpt>
<trkpt lat="48.04046690" lon="0.40854184"><ele></ele><time>2014-6-18T10:38:7Z</time></trkpt>
<trkpt lat="48.04094039" lon="0.40844159"><ele></ele><time>2014-6-18T10:38:10Z</time></trkpt>
<trkpt lat="48.04118455" lon="0.40838250"><ele></ele><time>2014-6-18T10:38:13Z</time></trkpt>
<trkpt lat="48.04134205" lon="0.40840312"><ele></ele><time>2014-6-18T10:38:16Z</time></trkpt>
<trkpt lat="48.04141380" lon="0.40853773"><ele></ele><time>2014-6-18T10:38:19Z</time></trkpt>
<trkpt lat="48.04161689" lon="0.40928892"><ele></ele><time>2014-6-18T10:38:22Z</time></trkpt>
<trkpt lat="48.04183197" lon="0.41000959"><ele></ele><time>2014-6-18T10:38:25Z</time></trkpt>
<trkpt lat="48.04190012" lon="0.41020598"><ele></ele><time>2014-6-18T10:38:28Z</time></trkpt>
<trkpt lat="48.04207228" lon="0.41046046"><ele></ele><time>2014-6-18T10:38:31Z</time></trkpt>
<trkpt lat="48.04222827" lon="0.41096094"><ele></ele><time>2014-6-18T10:38:34Z</time></trkpt>
<trkpt lat="48.04235257" lon="0.41134684"><ele></ele><time>2014-6-18T10:38:37Z</time></trkpt>
<trkpt lat="48.04249054" lon="0.41175186"><ele></ele><time>2014-6-18T10:38:40Z</time></trkpt>
<trkpt lat="48.04265088" lon="0.41217078"><ele></ele><time>2014-6-18T10:38:43Z</time></trkpt>
<trkpt lat="48.04275993" lon="0.41244915"><ele></ele><time>2014-6-18T10:38:46Z</time></trkpt>
<trkpt lat="48.04281659" lon="0.41259063"><ele></ele><time>2014-6-18T10:38:49Z</time></trkpt>
<trkpt lat="48.04292732" lon="0.41286682"><ele></ele><time>2014-6-18T10:38:52Z</time></trkpt>
<trkpt lat="48.04323577" lon="0.41362186"><ele></ele><time>2014-6-18T10:38:55Z</time></trkpt>
<trkpt lat="48.04343878" lon="0.41415059"><ele></ele><time>2014-6-18T10:38:58Z</time></trkpt>
<trkpt lat="48.04371882" lon="0.41493463"><ele></ele><time>2014-6-18T10:39:1Z</time></trkpt>
<trkpt lat="48.04397338" lon="0.41567476"><ele></ele><time>2014-6-18T10:39:4Z</time></trkpt>
<trkpt lat="48.04428276" lon="0.41642812"><ele></ele><time>2014-6-18T10:39:7Z</time></trkpt>
<trkpt lat="48.04448543" lon="0.41691813"><ele></ele><time>2014-6-18T10:39:10Z</time></trkpt>
<trkpt lat="48.04463119" lon="0.41735147"><ele></ele><time>2014-6-18T10:39:13Z</time></trkpt>
<trkpt lat="48.04475969" lon="0.41798565"><ele></ele><time>2014-6-18T10:39:16Z</time></trkpt>
<trkpt lat="48.04486480" lon="0.41852410"><ele></ele><time>2014-6-18T10:39:19Z</time></trkpt>
<trkpt lat="48.04488609" lon="0.41861236"><ele></ele><time>2014-6-18T10:39:22Z</time></trkpt>
<trkpt lat="48.04501877" lon="0.41894177"><ele></ele><time>2014-6-18T10:39:25Z</time></trkpt>
<trkpt lat="48.04521843" lon="0.41909114"><ele></ele><time>2014-6-18T10:39:28Z</time></trkpt>
<trkpt lat="48.04530820" lon="0.41902492"><ele></ele><time>2014-6-18T10:39:31Z</time></trkpt>
<trkpt lat="48.04538389" lon="0.41895057"><ele></ele><time>2014-6-18T10:39:34Z</time></trkpt>
<trkpt lat="48.04551439" lon="0.41889869"><ele></ele><time>2014-6-18T10:39:37Z</time></trkpt>
<trkpt lat="48.04557986" lon="0.41891025"><ele></ele><time>2014-6-18T10:39:40Z</time></trkpt>
<trkpt lat="48.04578186" lon="0.41875703"><ele></ele><time>2014-6-18T10:39:43Z</time></trkpt>
<trkpt lat="48.04599174" lon="0.41852913"><ele></ele><time>2014-6-18T10:39:46Z</time></trkpt>
<trkpt lat="48.04613239" lon="0.41823668"><ele></ele><time>2014-6-18T10:39:49Z</time></trkpt>
<trkpt lat="48.04624496" lon="0.41775808"><ele></ele><time>2014-6-18T10:39:52Z</time></trkpt>
<trkpt lat="48.04635627" lon="0.41729615"><ele></ele><time>2014-6-18T10:39:55Z</time></trkpt>
<trkpt lat="48.04644537" lon="0.41699356"><ele></ele><time>2014-6-18T10:39:58Z</time></trkpt>
<trkpt lat="48.04662097" lon="0.41692877"><ele></ele><time>2014-6-18T10:40:1Z</time></trkpt>
<trkpt lat="48.04700470" lon="0.41684353"><ele></ele><time>2014-6-18T10:40:4Z</time></trkpt>
<trkpt lat="48.04704216" lon="0.41683498"><ele></ele><time>2014-6-18T10:40:7Z</time></trkpt>
<trkpt lat="48.04714258" lon="0.41691938"><ele></ele><time>2014-6-18T10:40:10Z</time></trkpt>
<trkpt lat="48.04716672" lon="0.41693388"><ele></ele><time>2014-6-18T10:40:13Z</time></trkpt>
<trkpt lat="48.04713948" lon="0.41690195"><ele></ele><time>2014-6-18T10:40:16Z</time></trkpt>
<trkpt lat="48.04715364" lon="0.41683674"><ele></ele><time>2014-6-18T10:40:19Z</time></trkpt>
<trkpt lat="48.04719765" lon="0.41683783"><ele></ele><time>2014-6-18T10:40:22Z</time></trkpt>
<trkpt lat="48.04742530" lon="0.41681587"><ele></ele><time>2014-6-18T10:40:25Z</time></trkpt>
<trkpt lat="48.04763719" lon="0.41679223"><ele></ele><time>2014-6-18T10:40:28Z</time></trkpt>
<trkpt lat="48.04773442" lon="0.41676004"><ele></ele><time>2014-6-18T10:40:31Z</time></trkpt>
<trkpt lat="48.04800055" lon="0.41675183"><ele></ele><time>2014-6-18T10:40:34Z</time></trkpt>
<trkpt lat="48.04833700" lon="0.41672149"><ele></ele><time>2014-6-18T10:40:37Z</time></trkpt>
<trkpt lat="48.04868267" lon="0.41663582"><ele></ele><time>2014-6-18T10:40:40Z</time></trkpt>
<trkpt lat="48.04904259" lon="0.41657045"><ele></ele><time>2014-6-18T10:40:43Z</time></trkpt>
<trkpt lat="48.04927083" lon="0.41654094"><ele></ele><time>2014-6-18T10:40:46Z</time></trkpt>
<trkpt lat="48.04946093" lon="0.41649987"><ele></ele><time>2014-6-18T10:40:49Z</time></trkpt>
<trkpt lat="48.04960133" lon="0.41634338"><ele></ele><time>2014-6-18T10:40:52Z</time></trkpt>
<trkpt lat="48.04960107" lon="0.41627490"><ele></ele><time>2014-6-18T10:40:55Z</time></trkpt>
<trkpt lat="48.04953259" lon="0.41568766"><ele></ele><time>2014-6-18T10:40:58Z</time></trkpt>
<trkpt lat="48.04949018" lon="0.41517955"><ele></ele><time>2014-6-18T10:41:1Z</time></trkpt>
<trkpt lat="48.04956092" lon="0.41485727"><ele></ele><time>2014-6-18T10:41:4Z</time></trkpt>
<trkpt lat="48.04957123" lon="0.41479323"><ele></ele><time>2014-6-18T10:41:7Z</time></trkpt>
<trkpt lat="48.04962605" lon="0.41417649"><ele></ele><time>2014-6-18T10:41:10Z</time></trkpt>
<trkpt lat="48.04966788" lon="0.41379369"><ele></ele><time>2014-6-18T10:41:13Z</time></trkpt>
<trkpt lat="48.04967559" lon="0.41374063"><ele></ele><time>2014-6-18T10:41:16Z</time></trkpt>
<trkpt lat="48.04961666" lon="0.41366796"><ele></ele><time>2014-6-18T10:41:19Z</time></trkpt>
<trkpt lat="48.04958263" lon="0.41365866"><ele></ele><time>2014-6-18T10:41:22Z</time></trkpt>
<trkpt lat="48.04938273" lon="0.41366310"><ele></ele><time>2014-6-18T10:41:25Z</time></trkpt>
<trkpt lat="48.04926228" lon="0.41364256"><ele></ele><time>2014-6-18T10:41:28Z</time></trkpt>
<trkpt lat="48.04909036" lon="0.41363267"><ele></ele><time>2014-6-18T10:41:31Z</time></trkpt>
<trkpt lat="48.04881049" lon="0.41359495"><ele></ele><time>2014-6-18T10:41:34Z</time></trkpt>
<trkpt lat="48.04862358" lon="0.41349320"><ele></ele><time>2014-6-18T10:41:37Z</time></trkpt>
<trkpt lat="48.04848628" lon="0.41342312"><ele></ele><time>2014-6-18T10:41:40Z</time></trkpt>
</trkseg></trk></gpx>